PORTS® Data Listing: 9414750 Alameda, CA

CO-OPS RAW PORTS DATA

************************      PRELIMINARY DATA      ************************** 

     THIS RAW DATA HAS NOT BEEN SUBJECT TO THE NATIONAL OCEAN SERVICE'S        
     QUALITY CONTROL OR QUALITY ASSURANCE PROCEDURES AND DOES NOT MEET         
     THE CRITERIA AND STANDARDS OF OFFICIAL NATIONAL OCEAN SERVICE             
     DATA.  IT IS RELEASED FOR LIMITED PUBLIC USE AS PRELIMINARY DATA TO       
     BE USED ONLY WITH APPROPRIATE CAUTION.                                    

************************      PRELIMINARY DATA      ************************** 


       CD   -   Calendar date
       T    -   Time
       TZ   -   Timezone
       PW   -   Predicted water level (feet above MLLW)
       OW   -   Observed water level (feet above MLLW)
       WS   -   Wind speed (knots)
       WD   -   Wind direction (degrees true)
       WG   -   Wind gust (knots)
       AT   -   Air temperature (degrees farenheit)
       WT   -   Water temperature (degrees farenheit)
       AP   -   Air pressure (millibars)
       SA   -   Salinty (PSU - Practical Salinity Units)
       SG   -   Specific gravity
       RH   -   Relative humidity
       AG   -   Air gap (feet)
       VI   -   Visibility (nautical miles)

       ** NOTE **
       A variable that has its data fields filled with "9"s, indicates that
       data was not collected for that sample period.
       **********


STATION NAME: Alameda (9414750)
****************************************************************************************************
    CD       T    TZ    PW     OW    WS   WD   WG    AT    WT    AP    SA    SG     RH    AG   VI
****************************************************************************************************
2019/10/11 04:12 PDT    0.96   0.97    1   36    1  58.1  63.3 1016.3 -9.9 -9.999 -99.9 -99.99 -9.99
2019/10/11 04:18 PDT    0.91   0.89    0   48    1  58.1  63.3 1016.2 -9.9 -9.999 -99.9 -99.99 -9.99
2019/10/11 04:24 PDT    0.86   0.84    0  355    1  58.1  63.3 1016.2 -9.9 -9.999 -99.9 -99.99 -9.99
2019/10/11 04:30 PDT    0.81   0.79    1  324    2  58.3  63.3 1016.3 -9.9 -9.999 -99.9 -99.99 -9.99
2019/10/11 04:36 PDT    0.77   0.74    2  319    3  58.5  63.3 1016.3 -9.9 -9.999 -99.9 -99.99 -9.99
2019/10/11 04:42 PDT    0.74   0.72    2  349    3  58.3  63.3 1016.4 -9.9 -9.999 -99.9 -99.99 -9.99
2019/10/11 04:48 PDT    0.71   0.70    1  346    2  58.1  63.3 1016.4 -9.9 -9.999 -99.9 -99.99 -9.99
2019/10/11 04:54 PDT    0.69   0.69    0   15    2  57.7  63.3 1016.4 -9.9 -9.999 -99.9 -99.99 -9.99
2019/10/11 05:00 PDT    0.67   0.68    1    9    2  57.2  63.3 1016.4 -9.9 -9.999 -99.9 -99.99 -9.99
2019/10/11 05:06 PDT    0.66   0.68    2    9    3  56.5  63.3 1016.4 -9.9 -9.999 -99.9 -99.99 -9.99
2019/10/11 05:12 PDT    0.66   0.68    4  358    4  55.9  63.3 1016.4 -9.9 -9.999 -99.9 -99.99 -9.99
2019/10/11 05:18 PDT    0.66   0.68    2  330    4  56.7  63.3 1016.4 -9.9 -9.999 -99.9 -99.99 -9.99
2019/10/11 05:24 PDT    0.67   0.71    4  333    4  57.0  63.3 1016.5 -9.9 -9.999 -99.9 -99.99 -9.99
2019/10/11 05:30 PDT    0.69   0.73    2  335    4  57.4  63.3 1016.4 -9.9 -9.999 -99.9 -99.99 -9.99
2019/10/11 05:36 PDT    0.71   0.75    3  340    4  57.4  63.3 1016.4 -9.9 -9.999 -99.9 -99.99 -9.99
2019/10/11 05:42 PDT    0.74   0.78    2  334    4  57.7  63.3 1016.4 -9.9 -9.999 -99.9 -99.99 -9.99
2019/10/11 05:48 PDT    0.78   0.81    1  328    3  57.9  63.3 1016.4 -9.9 -9.999 -99.9 -99.99 -9.99
2019/10/11 05:54 PDT    0.82   0.87    2  297    4  58.3  63.3 1016.3 -9.9 -9.999 -99.9 -99.99 -9.99
2019/10/11 06:00 PDT    0.87   0.93    1  322    3  58.1  63.3 1016.3 -9.9 -9.999 -99.9 -99.99 -9.99
2019/10/11 06:06 PDT    0.92   0.99    2  324    3  57.9  63.3 1016.3 -9.9 -9.999 -99.9 -99.99 -9.99
2019/10/11 06:12 PDT    0.98   1.03    2  325    4  57.9  63.3 1016.3 -9.9 -9.999 -99.9 -99.99 -9.99
2019/10/11 06:18 PDT    1.05   1.10    2  330    3  57.9  63.3 1016.4 -9.9 -9.999 -99.9 -99.99 -9.99
2019/10/11 06:24 PDT    1.12   1.17    2  336    3  57.9  63.3 1016.5 -9.9 -9.999 -99.9 -99.99 -9.99
2019/10/11 06:30 PDT    1.19   1.23    2  324    4  57.7  63.3 1016.6 -9.9 -9.999 -99.9 -99.99 -9.99
2019/10/11 06:36 PDT    1.27   1.28    2  324    4  57.7  63.3 1016.6 -9.9 -9.999 -99.9 -99.99 -9.99
2019/10/11 06:42 PDT    1.36   1.36    2  328    4  57.9  63.3 1016.6 -9.9 -9.999 -99.9 -99.99 -9.99
2019/10/11 06:48 PDT    1.45   1.47    2  306    3  57.7  63.3 1016.7 -9.9 -9.999 -99.9 -99.99 -9.99
2019/10/11 06:54 PDT    1.54   1.59    2  313    3  57.9  63.1 1016.7 -9.9 -9.999 -99.9 -99.99 -9.99
2019/10/11 07:00 PDT    1.64   1.70    2  321    4  57.9  63.1 1016.7 -9.9 -9.999 -99.9 -99.99 -9.99
2019/10/11 07:06 PDT    1.74   1.80    4  298    6  58.1  63.1 1016.8 -9.9 -9.999 -99.9 -99.99 -9.99
2019/10/11 07:12 PDT    1.84   1.89    4  295    5  57.6  63.1 1016.9 -9.9 -9.999 -99.9 -99.99 -9.99
2019/10/11 07:18 PDT    1.95   2.00    3  304    5  57.4  63.1 1016.9 -9.9 -9.999 -99.9 -99.99 -9.99
2019/10/11 07:24 PDT    2.06   2.14    4  322    6  57.4  63.0 1016.9 -9.9 -9.999 -99.9 -99.99 -9.99
2019/10/11 07:30 PDT    2.18   2.26    3  313    5  57.4  63.0 1016.9 -9.9 -9.999 -99.9 -99.99 -9.99
2019/10/11 07:36 PDT    2.29   2.39    4  332    5  57.7  63.0 1016.9 -9.9 -9.999 -99.9 -99.99 -9.99
2019/10/11 07:42 PDT    2.41   2.51    3  324    4  58.3  63.0 1017.0 -9.9 -9.999 -99.9 -99.99 -9.99
2019/10/11 07:48 PDT    2.53   2.61    3    4    5  58.6  63.0 1017.0 -9.9 -9.999 -99.9 -99.99 -9.99
2019/10/11 07:54 PDT    2.65   2.73    1   14    3  59.4  63.0 1017.0 -9.9 -9.999 -99.9 -99.99 -9.99
2019/10/11 08:00 PDT    2.77   2.86    2   20    4  60.4  63.0 1017.1 -9.9 -9.999 -99.9 -99.99 -9.99
2019/10/11 08:06 PDT    2.89   3.01    2  118    4  61.5  63.0 1017.1 -9.9 -9.999 -99.9 -99.99 -9.99
2019/10/11 08:12 PDT    3.02   3.14    2  114    5  61.9  63.0 1017.2 -9.9 -9.999 -99.9 -99.99 -9.99
2019/10/11 08:18 PDT    3.14   3.26    1  160    3  62.4  63.0 1017.2 -9.9 -9.999 -99.9 -99.99 -9.99
2019/10/11 08:24 PDT    3.27   3.37    1   74    2  63.0  63.0 1017.3 -9.9 -9.999 -99.9 -99.99 -9.99
2019/10/11 08:30 PDT    3.39   3.49    3   15    4  62.6  63.0 1017.4 -9.9 -9.999 -99.9 -99.99 -9.99
2019/10/11 08:36 PDT    3.52   3.63    3   10    4  62.6  63.0 1017.5 -9.9 -9.999 -99.9 -99.99 -9.99
2019/10/11 08:42 PDT    3.64   3.75    1   22    4  63.1  63.0 1017.6 -9.9 -9.999 -99.9 -99.99 -9.99
2019/10/11 08:48 PDT    3.77   3.86    1   32    3  63.9  63.0 1017.6 -9.9 -9.999 -99.9 -99.99 -9.99
2019/10/11 08:54 PDT    3.89   3.98    0   41    2  65.1  63.0 1017.7 -9.9 -9.999 -99.9 -99.99 -9.99
2019/10/11 09:00 PDT    4.01   4.09    1  117    2  64.6  63.0 1017.8 -9.9 -9.999 -99.9 -99.99 -9.99
2019/10/11 09:06 PDT    4.14   4.22    1  118    2  64.2  63.0 1017.9 -9.9 -9.999 -99.9 -99.99 -9.99
2019/10/11 09:12 PDT    4.26   4.35    2  135    2  64.0  63.0 1017.9 -9.9 -9.999 -99.9 -99.99 -9.99
2019/10/11 09:18 PDT    4.38   4.47    2  122    2  64.2  63.0 1017.9 -9.9 -9.999 -99.9 -99.99 -9.99
2019/10/11 09:24 PDT    4.50   4.57    2  180    2  64.0  63.0 1017.9 -9.9 -9.999 -99.9 -99.99 -9.99
2019/10/11 09:30 PDT    4.61   4.68    3  183    4  63.9  63.0 1018.0 -9.9 -9.999 -99.9 -99.99 -9.99
2019/10/11 09:36 PDT    4.72   4.77    2  185    3  64.0  63.0 1017.9 -9.9 -9.999 -99.9 -99.99 -9.99
2019/10/11 09:42 PDT    4.83   4.86    3  187    3  63.9  63.0 1017.9 -9.9 -9.999 -99.9 -99.99 -9.99
2019/10/11 09:48 PDT    4.94   4.97    2  218    3  63.1  63.0 1018.0 -9.9 -9.999 -99.9 -99.99 -9.99
2019/10/11 09:54 PDT    5.05   5.07    2  252    3  62.8  63.0 1018.0 -9.9 -9.999 -99.9 -99.99 -9.99
2019/10/11 10:00 PDT    5.15   5.16    3  255    4  62.1  63.0 1017.9 -9.9 -9.999 -99.9 -99.99 -9.99
2019/10/11 10:06 PDT    5.25   5.25    2  249    3  62.4  63.0 1017.9 -9.9 -9.999 -99.9 -99.99 -9.99
2019/10/11 10:12 PDT    5.34   5.34    2  249    3  62.8  63.0 1018.0 -9.9 -9.999 -99.9 -99.99 -9.99
2019/10/11 10:18 PDT    5.43   5.41    2  230    3  62.6  63.0 1017.9 -9.9 -9.999 -99.9 -99.99 -9.99
2019/10/11 10:24 PDT    5.51   5.49    2  249    3  62.6  63.0 1017.9 -9.9 -9.999 -99.9 -99.99 -9.99
2019/10/11 10:30 PDT    5.59   5.58    3  251    3  62.8  63.0 1017.9 -9.9 -9.999 -99.9 -99.99 -9.99
2019/10/11 10:36 PDT    5.67   5.66    3  255    4  62.6  63.0 1017.8 -9.9 -9.999 -99.9 -99.99 -9.99
2019/10/11 10:42 PDT    5.73   5.73    3  254    4  62.8  62.8 1017.8 -9.9 -9.999 -99.9 -99.99 -9.99
2019/10/11 10:48 PDT    5.80   5.80    3  248    4  62.8  62.8 1017.8 -9.9 -9.999 -99.9 -99.99 -9.99
2019/10/11 10:54 PDT    5.85   5.86    4  255    4  62.8  62.8 1017.8 -9.9 -9.999 -99.9 -99.99 -9.99
2019/10/11 11:00 PDT    5.90   5.91    3  251    4  63.0  62.8 1017.8 -9.9 -9.999 -99.9 -99.99 -9.99
2019/10/11 11:06 PDT    5.95   5.96    4  251    4  63.0  62.8 1017.7 -9.9 -9.999 -99.9 -99.99 -9.99
2019/10/11 11:12 PDT    5.98   6.00    3  253    4  63.0  62.8 1017.7 -9.9 -9.999 -99.9 -99.99 -9.99
2019/10/11 11:18 PDT    6.01   6.04    4  254    4  63.0  62.8 1017.7 -9.9 -9.999 -99.9 -99.99 -9.99
2019/10/11 11:24 PDT    6.04   6.07    3  243    4  63.1  63.0 1017.6 -9.9 -9.999 -99.9 -99.99 -9.99
2019/10/11 11:30 PDT    6.05   6.11    3  246    4  63.0  63.0 1017.6 -9.9 -9.999 -99.9 -99.99 -9.99
2019/10/11 11:36 PDT    6.06   6.13    3  249    4  63.3  63.0 1017.5 -9.9 -9.999 -99.9 -99.99 -9.99
2019/10/11 11:42 PDT    6.06   6.13    3  247    3  63.3  63.0 1017.6 -9.9 -9.999 -99.9 -99.99 -9.99
2019/10/11 11:48 PDT    6.05   6.12    3  246    4  63.0  63.0 1017.5 -9.9 -9.999 -99.9 -99.99 -9.99
2019/10/11 11:54 PDT    6.04   6.14    4  243    4  63.5  63.0 1017.5 -9.9 -9.999 -99.9 -99.99 -9.99
2019/10/11 12:00 PDT    6.02   6.14    4  251    4  63.1  63.0 1017.4 -9.9 -9.999 -99.9 -99.99 -9.99
2019/10/11 12:06 PDT    5.99   6.12    4  256    4  63.0  63.0 1017.4 -9.9 -9.999 -99.9 -99.99 -9.99
2019/10/11 12:12 PDT    5.95   6.09    4  251    5  63.1  63.0 1017.4 -9.9 -9.999 -99.9 -99.99 -9.99
2019/10/11 12:18 PDT    5.91   6.04    4  250    4  63.3  63.0 1017.3 -9.9 -9.999 -99.9 -99.99 -9.99
2019/10/11 12:24 PDT    5.86   5.99    4  234    4  63.3  63.0 1017.3 -9.9 -9.999 -99.9 -99.99 -9.99
2019/10/11 12:30 PDT    5.80   5.94    4  246    4  63.3  63.0 1017.2 -9.9 -9.999 -99.9 -99.99 -9.99
2019/10/11 12:36 PDT    5.74   5.90    4  236    4  63.5  63.1 1017.1 -9.9 -9.999 -99.9 -99.99 -9.99
2019/10/11 12:42 PDT    5.67   5.82    4  233    4  63.3  63.1 1017.0 -9.9 -9.999 -99.9 -99.99 -9.99
2019/10/11 12:48 PDT    5.59   5.72    4  228    4  62.8  63.1 1017.0 -9.9 -9.999 -99.9 -99.99 -9.99
2019/10/11 12:54 PDT    5.51   5.65    3  231    4  63.0  63.1 1016.9 -9.9 -9.999 -99.9 -99.99 -9.99
2019/10/11 13:00 PDT    5.43   5.55    3  226    4  63.1  63.1 1016.8 -9.9 -9.999 -99.9 -99.99 -9.99
2019/10/11 13:06 PDT    5.34   5.45    4  208    4  63.5  63.1 1016.7 -9.9 -9.999 -99.9 -99.99 -9.99
2019/10/11 13:12 PDT    5.24   5.36    4  217    5  63.5  63.1 1016.6 -9.9 -9.999 -99.9 -99.99 -9.99
2019/10/11 13:18 PDT    5.14   5.27    4  231    4  63.7  63.0 1016.5 -9.9 -9.999 -99.9 -99.99 -9.99
2019/10/11 13:24 PDT    5.04   5.15    4  227    4  64.0  63.0 1016.4 -9.9 -9.999 -99.9 -99.99 -9.99
2019/10/11 13:30 PDT    4.93   5.05    4  231    4  64.2  63.0 1016.3 -9.9 -9.999 -99.9 -99.99 -9.99
2019/10/11 13:36 PDT    4.82   4.92    4  240    4  64.4  63.0 1016.2 -9.9 -9.999 -99.9 -99.99 -9.99
2019/10/11 13:42 PDT    4.70   4.79    4  229    4  64.8  63.0 1016.1 -9.9 -9.999 -99.9 -99.99 -9.99
2019/10/11 13:48 PDT    4.59   4.65    4  236    4  64.9  63.0 1016.0 -9.9 -9.999 -99.9 -99.99 -9.99
2019/10/11 13:54 PDT    4.47   4.53    4  248    4  64.9  63.0 1015.9 -9.9 -9.999 -99.9 -99.99 -9.99
2019/10/11 14:00 PDT    4.35   4.39    4  252    5  65.1  63.0 1015.8 -9.9 -9.999 -99.9 -99.99 -9.99
2019/10/11 14:06 PDT    4.23   4.25    4  238    5  65.3  63.0 1015.8 -9.9 -9.999 -99.9 -99.99 -9.99
2019/10/11 14:12 PDT    4.11   4.11    4  233    5  65.7  63.0 1015.6 -9.9 -9.999 -99.9 -99.99 -9.99
2019/10/11 14:18 PDT    3.98   3.98    4  245    5  66.0  63.0 1015.5 -9.9 -9.999 -99.9 -99.99 -9.99
2019/10/11 14:24 PDT    3.86   3.84    4  255    5  65.7  63.0 1015.4 -9.9 -9.999 -99.9 -99.99 -9.99
2019/10/11 14:30 PDT    3.74   3.71    5  279    6  68.4  63.0 1015.3 -9.9 -9.999 -99.9 -99.99 -9.99
2019/10/11 14:36 PDT    3.61   3.57    5  280    6  68.9  63.0 1015.3 -9.9 -9.999 -99.9 -99.99 -9.99
2019/10/11 14:42 PDT    3.49   3.44    5  278    6  69.8  63.0 1015.2 -9.9 -9.999 -99.9 -99.99 -9.99
2019/10/11 14:48 PDT    3.37   3.31    4  276    6  70.2  63.0 1015.1 -9.9 -9.999 -99.9 -99.99 -9.99
2019/10/11 14:54 PDT    3.25   3.19    6  280    7  72.3  63.0 1015.1 -9.9 -9.999 -99.9 -99.99 -9.99
2019/10/11 15:00 PDT    3.13   3.09    6  276    7  72.7  63.0 1015.1 -9.9 -9.999 -99.9 -99.99 -9.99
2019/10/11 15:06 PDT    3.01   2.99    6  278    7  73.0  63.0 1015.0 -9.9 -9.999 -99.9 -99.99 -9.99
2019/10/11 15:12 PDT    2.89   2.90    6  283    7  73.9  63.0 1015.0 -9.9 -9.999 -99.9 -99.99 -9.99
2019/10/11 15:18 PDT    2.78   2.76    5  280    7  73.9  63.0 1014.9 -9.9 -9.999 -99.9 -99.99 -9.99
2019/10/11 15:24 PDT    2.67   2.64    5  283    7  73.9  63.0 1014.8 -9.9 -9.999 -99.9 -99.99 -9.99
2019/10/11 15:30 PDT    2.56   2.54    5  282    6  74.1  63.0 1014.8 -9.9 -9.999 -99.9 -99.99 -9.99
2019/10/11 15:36 PDT    2.45   2.43    5  282    7  74.8  63.0 1014.7 -9.9 -9.999 -99.9 -99.99 -9.99
2019/10/11 15:42 PDT    2.35   2.34    5  282    6  74.8  63.0 1014.6 -9.9 -9.999 -99.9 -99.99 -9.99
2019/10/11 15:48 PDT    2.25   2.25    6  283    7  75.0  63.0 1014.5 -9.9 -9.999 -99.9 -99.99 -9.99
2019/10/11 15:54 PDT    2.16   2.15    6  282    7  75.0  63.1 1014.5 -9.9 -9.999 -99.9 -99.99 -9.99
2019/10/11 16:00 PDT    2.06   2.03    5  281    7  75.4  63.1 1014.5 -9.9 -9.999 -99.9 -99.99 -9.99
2019/10/11 16:06 PDT    1.98   1.95    5  278    7  75.6  63.1 1014.4 -9.9 -9.999 -99.9 -99.99 -9.99
2019/10/11 16:12 PDT    1.89   1.88    5  282    6  75.6  63.1 1014.3 -9.9 -9.999 -99.9 -99.99 -9.99
2019/10/11 16:18 PDT    1.81   1.80    5  281    6  75.4  63.1 1014.2 -9.9 -9.999 -99.9 -99.99 -9.99
2019/10/11 16:24 PDT    1.74   1.76    6  284    7  75.4  63.1 1014.2 -9.9 -9.999 -99.9 -99.99 -9.99
2019/10/11 16:30 PDT    1.67   1.72    6  283    7  75.6  63.3 1014.1 -9.9 -9.999 -99.9 -99.99 -9.99
2019/10/11 16:36 PDT    1.61   1.64    5  282    7  75.4  63.3 1014.0 -9.9 -9.999 -99.9 -99.99 -9.99
2019/10/11 16:42 PDT    1.55   1.59    5  285    6  75.6  63.3 1014.0 -9.9 -9.999 -99.9 -99.99 -9.99
2019/10/11 16:48 PDT    1.50   1.59    4  288    6  75.7  63.5 1013.9 -9.9 -9.999 -99.9 -99.99 -9.99
2019/10/11 16:54 PDT    1.45   1.53    5  286    6  75.7  63.5 1013.9 -9.9 -9.999 -99.9 -99.99 -9.99
2019/10/11 17:00 PDT    1.41   1.48    5  283    6  75.4  63.7 1013.8 -9.9 -9.999 -99.9 -99.99 -9.99
2019/10/11 17:06 PDT    1.37   1.45    4  282    6  75.2  63.7 1013.8 -9.9 -9.999 -99.9 -99.99 -9.99
2019/10/11 17:12 PDT    1.35   1.43    4  286    6  75.2  63.7 1013.7 -9.9 -9.999 -99.9 -99.99 -9.99
2019/10/11 17:18 PDT    1.32   1.42    4  293    5  75.7  63.7 1013.7 -9.9 -9.999 -99.9 -99.99 -9.99
2019/10/11 17:24 PDT    1.31   1.42    4  295    6  75.9  63.7 1013.7 -9.9 -9.999 -99.9 -99.99 -9.99
2019/10/11 17:30 PDT    1.30   1.39    3  295    5  75.9  63.7 1013.7 -9.9 -9.999 -99.9 -99.99 -9.99
2019/10/11 17:36 PDT    1.30   1.35    4  300    7  75.6  63.5 1013.6 -9.9 -9.999 -99.9 -99.99 -9.99
2019/10/11 17:42 PDT    1.30   1.34    3  302    5  75.4  63.5 1013.6 -9.9 -9.999 -99.9 -99.99 -9.99
2019/10/11 17:48 PDT    1.31   1.39    3  293    4  75.2  63.5 1013.6 -9.9 -9.999 -99.9 -99.99 -9.99
2019/10/11 17:54 PDT    1.33   1.43    3  300    4  75.0  63.5 1013.5 -9.9 -9.999 -99.9 -99.99 -9.99
2019/10/11 18:00 PDT    1.35   1.48    3  310    4  74.7  63.7 1013.5 -9.9 -9.999 -99.9 -99.99 -9.99
2019/10/11 18:06 PDT    1.38   1.50    3  319    5  74.1  63.7 1013.5 -9.9 -9.999 -99.9 -99.99 -9.99
2019/10/11 18:12 PDT    1.42   1.51    2  313    4  73.9  63.7 1013.5 -9.9 -9.999 -99.9 -99.99 -9.99
2019/10/11 18:18 PDT    1.46   1.54    3  312    5  73.4  63.7 1013.5 -9.9 -9.999 -99.9 -99.99 -9.99
2019/10/11 18:24 PDT    1.51   1.61    3  312    5  72.9  63.7 1013.5 -9.9 -9.999 -99.9 -99.99 -9.99
2019/10/11 18:30 PDT    1.56   1.69    3  316    4  72.5  63.7 1013.5 -9.9 -9.999 -99.9 -99.99 -9.99
2019/10/11 18:36 PDT    1.62   1.78    3  319    5  72.1  63.7 1013.5 -9.9 -9.999 -99.9 -99.99 -9.99
2019/10/11 18:42 PDT    1.69   1.86    2  326    4  72.0  63.7 1013.6 -9.9 -9.999 -99.9 -99.99 -9.99
2019/10/11 18:48 PDT    1.76   1.92    2  322    4  72.0  63.7 1013.6 -9.9 -9.999 -99.9 -99.99 -9.99
2019/10/11 18:54 PDT    1.84   1.98    2  327    4  71.8  63.7 1013.6 -9.9 -9.999 -99.9 -99.99 -9.99
2019/10/11 19:00 PDT    1.92   2.06    2  336    3  71.6  63.7 1013.7 -9.9 -9.999 -99.9 -99.99 -9.99
2019/10/11 19:06 PDT    2.00   2.18    2  340    3  71.2  63.7 1013.7 -9.9 -9.999 -99.9 -99.99 -9.99
2019/10/11 19:12 PDT    2.09   2.30    2  331    4  71.8  63.7 1013.8 -9.9 -9.999 -99.9 -99.99 -9.99
2019/10/11 19:18 PDT    2.18   2.40    3  309    4  72.0  63.7 1013.8 -9.9 -9.999 -99.9 -99.99 -9.99
2019/10/11 19:24 PDT    2.28   2.45    2  304    4  71.8  63.7 1013.8 -9.9 -9.999 -99.9 -99.99 -9.99
2019/10/11 19:30 PDT    2.38   2.52    2  287    3  71.1  63.7 1013.9 -9.9 -9.999 -99.9 -99.99 -9.99
2019/10/11 19:36 PDT    2.48   2.63    2  300    3  70.5  63.5 1013.9 -9.9 -9.999 -99.9 -99.99 -9.99
2019/10/11 19:42 PDT    2.58   2.77    2  302    2  70.2  63.5 1014.0 -9.9 -9.999 -99.9 -99.99 -9.99
2019/10/11 19:48 PDT    2.69   2.90    3  300    4  69.6  63.5 1014.0 -9.9 -9.999 -99.9 -99.99 -9.99
2019/10/11 19:54 PDT    2.80   2.99    2  312    2  69.3  63.5 1014.1 -9.9 -9.999 -99.9 -99.99 -9.99
2019/10/11 20:00 PDT    2.91   3.09    2  304    3  69.3  63.5 1014.1 -9.9 -9.999 -99.9 -99.99 -9.99
2019/10/11 20:06 PDT    3.02   3.20    3  295    4  69.1  63.5 1014.0 -9.9 -9.999 -99.9 -99.99 -9.99
2019/10/11 20:12 PDT    3.13   3.31    3  302    4  69.3  63.5 1014.0 -9.9 -9.999 -99.9 -99.99 -9.99
2019/10/11 20:18 PDT    3.25   3.43    3  299    4  69.3  63.3 1014.0 -9.9 -9.999 -99.9 -99.99 -9.99
2019/10/11 20:24 PDT    3.36   3.55    3  296    4  68.9  63.3 1014.0 -9.9 -9.999 -99.9 -99.99 -9.99
2019/10/11 20:30 PDT    3.48   3.66    3  292    5  68.9  63.3 1014.1 -9.9 -9.999 -99.9 -99.99 -9.99
2019/10/11 20:36 PDT    3.59   3.77    3  318    4  69.1  63.3 1014.1 -9.9 -9.999 -99.9 -99.99 -9.99
2019/10/11 20:42 PDT    3.70   3.88    2  346    4  68.5  63.3 1014.2 -9.9 -9.999 -99.9 -99.99 -9.99
2019/10/11 20:48 PDT    3.82   4.01    1   41    4  67.6  63.3 1014.2 -9.9 -9.999 -99.9 -99.99 -9.99
2019/10/11 20:54 PDT    3.93   4.13    0  102    3  67.3  63.3 1014.3 -9.9 -9.999 -99.9 -99.99 -9.99
2019/10/11 21:00 PDT    4.04   4.22    1   49    3  66.9  63.3 1014.3 -9.9 -9.999 -99.9 -99.99 -9.99
2019/10/11 21:06 PDT    4.15   4.31    3  356    4  67.3  63.3 1014.4 -9.9 -9.999 -99.9 -99.99 -9.99
2019/10/11 21:12 PDT    4.26   4.44    3  337    5  67.3  63.3 1014.4 -9.9 -9.999 -99.9 -99.99 -9.99
2019/10/11 21:18 PDT    4.37   4.56    4  337    7  66.7  63.3 1014.4 -9.9 -9.999 -99.9 -99.99 -9.99
2019/10/11 21:24 PDT    4.48   4.66    3  313    5  66.2  63.3 1014.5 -9.9 -9.999 -99.9 -99.99 -9.99
2019/10/11 21:30 PDT    4.58   4.76    3  299    5  65.8  63.3 1014.5 -9.9 -9.999 -99.9 -99.99 -9.99
2019/10/11 21:36 PDT    4.68   4.85    3  326    6  65.7  63.3 1014.5 -9.9 -9.999 -99.9 -99.99 -9.99
2019/10/11 21:42 PDT    4.78   4.94    2  312    4  65.5  63.3 1014.6 -9.9 -9.999 -99.9 -99.99 -9.99
2019/10/11 21:48 PDT    4.88   5.03    3  320    6  65.5  63.3 1014.6 -9.9 -9.999 -99.9 -99.99 -9.99
2019/10/11 21:54 PDT    4.97   5.12    4  308    6  65.5  63.3 1014.7 -9.9 -9.999 -99.9 -99.99 -9.99
2019/10/11 22:00 PDT    5.06   5.23    3  289    5  65.3  63.3 1014.7 -9.9 -9.999 -99.9 -99.99 -9.99
2019/10/11 22:06 PDT    5.14   5.31    3  295    4  64.6  63.3 1014.7 -9.9 -9.999 -99.9 -99.99 -9.99
2019/10/11 22:12 PDT    5.23   5.40    4  286    5  64.0  63.1 1014.7 -9.9 -9.999 -99.9 -99.99 -9.99
2019/10/11 22:18 PDT    5.31   5.48    4  286    5  63.7  63.1 1014.7 -9.9 -9.999 -99.9 -99.99 -9.99
2019/10/11 22:24 PDT    5.38   5.55    4  282    5  63.3  63.0 1014.7 -9.9 -9.999 -99.9 -99.99 -9.99
2019/10/11 22:30 PDT    5.45   5.62    3  285    4  63.1  63.0 1014.7 -9.9 -9.999 -99.9 -99.99 -9.99
2019/10/11 22:36 PDT    5.52   5.69    3  294    4  63.1  63.0 1014.6 -9.9 -9.999 -99.9 -99.99 -9.99
2019/10/11 22:42 PDT    5.58   5.76    3  294    4  63.1  63.0 1014.5 -9.9 -9.999 -99.9 -99.99 -9.99
2019/10/11 22:48 PDT    5.63   5.83    3  292    4  63.0  63.1 1014.6 -9.9 -9.999 -99.9 -99.99 -9.99
2019/10/11 22:54 PDT    5.68   5.87    4  288    4  62.6  63.1 1014.6 -9.9 -9.999 -99.9 -99.99 -9.99
2019/10/11 23:00 PDT    5.72   5.91    3  288    4  62.6  63.1 1014.6 -9.9 -9.999 -99.9 -99.99 -9.99
2019/10/11 23:06 PDT    5.76   5.94    3  288    4  62.4  63.1 1014.6 -9.9 -9.999 -99.9 -99.99 -9.99
2019/10/11 23:12 PDT    5.79   5.99    4  290    4  62.4  63.1 1014.6 -9.9 -9.999 -99.9 -99.99 -9.99
2019/10/11 23:18 PDT    5.82   6.04    3  288    4  62.4  63.1 1014.6 -9.9 -9.999 -99.9 -99.99 -9.99
2019/10/11 23:24 PDT    5.84   6.06    4  291    4  62.4  63.1 1014.7 -9.9 -9.999 -99.9 -99.99 -9.99
2019/10/11 23:30 PDT    5.85   6.06    3  299    4  62.4  63.1 1014.6 -9.9 -9.999 -99.9 -99.99 -9.99
2019/10/11 23:36 PDT    5.85   6.08    3  303    4  62.4  63.1 1014.6 -9.9 -9.999 -99.9 -99.99 -9.99
2019/10/11 23:42 PDT    5.85   6.11    3  291    4  62.2  63.1 1014.6 -9.9 -9.999 -99.9 -99.99 -9.99
2019/10/11 23:48 PDT    5.84   6.09    2  320    4  62.2  63.1 1014.5 -9.9 -9.999 -99.9 -99.99 -9.99
2019/10/11 23:54 PDT    5.83   6.07    2  300    3  62.1  63.1 1014.5 -9.9 -9.999 -99.9 -99.99 -9.99
2019/10/12 00:00 PDT    5.80   6.05    2  296    2  62.1  63.1 1014.5 -9.9 -9.999 -99.9 -99.99 -9.99
2019/10/12 00:06 PDT    5.77   6.02    1  332    2  62.1  63.3 1014.4 -9.9 -9.999 -99.9 -99.99 -9.99
2019/10/12 00:12 PDT    5.73   5.99    1  291    1  62.1  63.3 1014.4 -9.9 -9.999 -99.9 -99.99 -9.99
2019/10/12 00:18 PDT    5.69   5.97    1  292    1  61.9  63.3 1014.3 -9.9 -9.999 -99.9 -99.99 -9.99
2019/10/12 00:24 PDT    5.64   5.94    0   23    1  61.5  63.3 1014.3 -9.9 -9.999 -99.9 -99.99 -9.99
2019/10/12 00:30 PDT    5.58   5.87    0   89    1  61.3  63.3 1014.3 -9.9 -9.999 -99.9 -99.99 -9.99
2019/10/12 00:36 PDT    5.52   5.78    2   96    3  60.8  63.3 1014.3 -9.9 -9.999 -99.9 -99.99 -9.99
2019/10/12 00:42 PDT    5.45   5.71    1   98    3  59.9  63.3 1014.3 -9.9 -9.999 -99.9 -99.99 -9.99
2019/10/12 00:48 PDT    5.37   5.62    2   93    2  61.0  63.3 1014.2 -9.9 -9.999 -99.9 -99.99 -9.99
2019/10/12 00:54 PDT    5.29   5.53    2   89    2  61.2  63.3 1014.3 -9.9 -9.999 -99.9 -99.99 -9.99
2019/10/12 01:00 PDT    5.20   5.43    1   90    2  60.6  63.3 1014.3 -9.9 -9.999 -99.9 -99.99 -9.99
2019/10/12 01:06 PDT    5.11   5.32    1   85    1  60.4  63.3 1014.3 -9.9 -9.999 -99.9 -99.99 -9.99
2019/10/12 01:12 PDT    5.01   5.22    1   73    2  60.3  63.1 1014.3 -9.9 -9.999 -99.9 -99.99 -9.99
2019/10/12 01:18 PDT    4.91   5.11    0   77    1  60.3  63.1 1014.4 -9.9 -9.999 -99.9 -99.99 -9.99
2019/10/12 01:24 PDT    4.80   4.98    1   92    2  60.1  63.1 1014.4 -9.9 -9.999 -99.9 -99.99 -9.99
2019/10/12 01:30 PDT    4.69   4.86    2   83    2  60.1  63.3 1014.4 -9.9 -9.999 -99.9 -99.99 -9.99
2019/10/12 01:36 PDT    4.57   4.75    2   86    2  60.4  63.3 1014.3 -9.9 -9.999 -99.9 -99.99 -9.99
2019/10/12 01:42 PDT    4.46   4.62    1   87    2  60.3  63.3 1014.3 -9.9 -9.999 -99.9 -99.99 -9.99
2019/10/12 01:48 PDT    4.34   4.47    0   87    1  60.3  63.3 1014.2 -9.9 -9.999 -99.9 -99.99 -9.99
2019/10/12 01:54 PDT    4.22   4.33    1   88    2  60.4  63.3 1014.2 -9.9 -9.999 -99.9 -99.99 -9.99
2019/10/12 02:00 PDT    4.09   4.22    2   89    2  60.1  63.3 1014.2 -9.9 -9.999 -99.9 -99.99 -9.99
2019/10/12 02:06 PDT    3.97   4.09    1   90    2  60.4  63.3 1014.1 -9.9 -9.999 -99.9 -99.99 -9.99
2019/10/12 02:12 PDT    3.84   3.94    0  111    1  60.1  63.3 1014.1 -9.9 -9.999 -99.9 -99.99 -9.99
2019/10/12 02:18 PDT    3.71   3.81    2   99    2  60.1  63.3 1014.1 -9.9 -9.999 -99.9 -99.99 -9.99
2019/10/12 02:24 PDT    3.58   3.67    1   91    2  59.7  63.3 1014.1 -9.9 -9.999 -99.9 -99.99 -9.99
2019/10/12 02:30 PDT    3.46   3.53    1   85    1  59.5  63.3 1014.1 -9.9 -9.999 -99.9 -99.99 -9.99
2019/10/12 02:36 PDT    3.33   3.39    2   92    2  59.5  63.3 1014.1 -9.9 -9.999 -99.9 -99.99 -9.99
2019/10/12 02:42 PDT    3.20   3.26    1   87    2  59.9  63.3 1014.1 -9.9 -9.999 -99.9 -99.99 -9.99
2019/10/12 02:48 PDT    3.08   3.13    1   95    2  60.3  63.3 1014.0 -9.9 -9.999 -99.9 -99.99 -9.99
2019/10/12 02:54 PDT    2.95   3.00    1   94    1  60.4  63.3 1014.0 -9.9 -9.999 -99.9 -99.99 -9.99
2019/10/12 03:00 PDT    2.83   2.86    0   93    1  59.9  63.3 1014.0 -9.9 -9.999 -99.9 -99.99 -9.99
2019/10/12 03:06 PDT    2.71   2.74    0   83    1  59.5  63.3 1013.9 -9.9 -9.999 -99.9 -99.99 -9.99
2019/10/12 03:12 PDT    2.59   2.61    0   64    1  59.7  63.3 1013.9 -9.9 -9.999 -99.9 -99.99 -9.99
2019/10/12 03:18 PDT    2.47   2.49    0   55    1  59.5  63.3 1013.8 -9.9 -9.999 -99.9 -99.99 -9.99
2019/10/12 03:24 PDT    2.36   2.37    1   86    2  59.7  63.3 1013.8 -9.9 -9.999 -99.9 -99.99 -9.99
2019/10/12 03:30 PDT    2.24   2.27    1   90    2  60.1  63.3 1013.7 -9.9 -9.999 -99.9 -99.99 -9.99
2019/10/12 03:36 PDT    2.14   2.17    2   87    2  60.1  63.3 1013.6 -9.9 -9.999 -99.9 -99.99 -9.99
2019/10/12 03:42 PDT    2.03   2.09    1   78    2  60.1  63.3 1013.5 -9.9 -9.999 -99.9 -99.99 -9.99
2019/10/12 03:48 PDT    1.93   2.00    1   92    2  59.9  63.3 1013.5 -9.9 -9.999 -99.9 -99.99 -9.99
2019/10/12 03:54 PDT    1.83   1.90    1   39    1  59.5  63.3 1013.4 -9.9 -9.999 -99.9 -99.99 -9.99
2019/10/12 04:00 PDT    1.73   1.78    1   13    2  59.4  63.3 1013.4 -9.9 -9.999 -99.9 -99.99 -9.99
2019/10/12 04:06 PDT    1.64   1.70    1  309    2  59.4  63.3 1013.3 -9.9 -9.999 -99.9 -99.99 -9.99
2019/10/12 04:12 PDT    1.56   1.63    1   28    2  59.0  63.3 1013.3 -9.9 -9.999 -99.9 -99.99 -9.99
2019/10/12 04:18 PDT    1.47   1.56    1    1    1  58.8  63.3 1013.3 -9.9 -9.999 -99.9 -99.99 -9.99
2019/10/12 04:24 PDT    1.40   1.51    1   27    2  59.0  63.3 1013.3 -9.9 -9.999 -99.9 -99.99 -9.99
2019/10/12 04:30 PDT    1.32   1.45    2    8    2  58.5  63.3 1013.4 -9.9 -9.999 -99.9 -99.99 -9.99
2019/10/12 04:36 PDT    1.25   1.39    1   32    2  58.1  63.3 1013.4 -9.9 -9.999 -99.9 -99.99 -9.99
2019/10/12 04:42 PDT    1.19   1.31    2  356    2  58.1  63.3 1013.4 -9.9 -9.999 -99.9 -99.99 -9.99
2019/10/12 04:48 PDT    1.13   1.25    2   14    2  58.3  63.3 1013.4 -9.9 -9.999 -99.9 -99.99 -9.99
2019/10/12 04:54 PDT    1.08   1.19    2    9    2  57.9  63.3 1013.4 -9.9 -9.999 -99.9 -99.99 -9.99
2019/10/12 05:00 PDT    1.03   1.15    2   28    2  57.7  63.3 1013.4 -9.9 -9.999 -99.9 -99.99 -9.99
2019/10/12 05:06 PDT    0.99   1.11    2  353    2  57.7  63.3 1013.4 -9.9 -9.999 -99.9 -99.99 -9.99
2019/10/12 05:12 PDT    0.96   1.08    2  341    3  57.9  63.3 1013.5 -9.9 -9.999 -99.9 -99.99 -9.99
2019/10/12 05:18 PDT    0.93   1.03    3  355    3  57.9  63.3 1013.5 -9.9 -9.999 -99.9 -99.99 -9.99
2019/10/12 05:24 PDT    0.90   1.01    2  345    3  58.1  63.3 1013.6 -9.9 -9.999 -99.9 -99.99 -9.99
2019/10/12 05:30 PDT    0.88   0.98    3  343    4  58.1  63.3 1013.5 -9.9 -9.999 -99.9 -99.99 -9.99
2019/10/12 05:36 PDT    0.87   0.98    3  342    4  58.1  63.3 1013.5 -9.9 -9.999 -99.9 -99.99 -9.99
2019/10/12 05:42 PDT    0.87   0.99    3  355    4  58.1  63.3 1013.5 -9.9 -9.999 -99.9 -99.99 -9.99
2019/10/12 05:48 PDT    0.87   1.00    3  357    4  57.9  63.3 1013.5 -9.9 -9.999 -99.9 -99.99 -9.99
2019/10/12 05:54 PDT    0.88   1.00    2   19    3  57.0  63.3 1013.5 -9.9 -9.999 -99.9 -99.99 -9.99
2019/10/12 06:00 PDT    0.89   1.01    3    8    3  57.0  63.3 1013.6 -9.9 -9.999 -99.9 -99.99 -9.99
2019/10/12 06:06 PDT    0.91   1.03    2    9    4  57.2  63.3 1013.6 -9.9 -9.999 -99.9 -99.99 -9.99
2019/10/12 06:12 PDT    0.94   1.07    4  349    4  57.6  63.3 1013.6 -9.9 -9.999 -99.9 -99.99 -9.99
2019/10/12 06:18 PDT    0.98   1.13    3  348    4  57.6  63.3 1013.7 -9.9 -9.999 -99.9 -99.99 -9.99
2019/10/12 06:24 PDT    1.02   1.18    4  340    4  57.6  63.3 1013.6 -9.9 -9.999 -99.9 -99.99 -9.99
2019/10/12 06:30 PDT    1.06   1.22    4  347    5  57.4  63.3 1013.6 -9.9 -9.999 -99.9 -99.99 -9.99
2019/10/12 06:36 PDT    1.11   1.27    4  356    5  57.6  63.3 1013.6 -9.9 -9.999 -99.9 -99.99 -9.99
2019/10/12 06:42 PDT    1.17   1.33    3  358    5  57.2  63.3 1013.7 -9.9 -9.999 -99.9 -99.99 -9.99
2019/10/12 06:48 PDT    1.24   1.41    3    8    4  56.8  63.3 1013.7 -9.9 -9.999 -99.9 -99.99 -9.99
2019/10/12 06:54 PDT    1.31   1.49    3    7    4  56.7  63.3 1013.7 -9.9 -9.999 -99.9 -99.99 -9.99
2019/10/12 07:00 PDT    1.38   1.56    3   12    4  56.5  63.3 1013.8 -9.9 -9.999 -99.9 -99.99 -9.99
2019/10/12 07:06 PDT    1.46   1.62    4    2    5  56.7  63.3 1013.8 -9.9 -9.999 -99.9 -99.99 -9.99
2019/10/12 07:12 PDT    1.55   1.69    4  359    5  56.7  63.3 1013.9 -9.9 -9.999 -99.9 -99.99 -9.99
2019/10/12 07:18 PDT    1.64   1.78    5  348    6  56.8  63.3 1013.9 -9.9 -9.999 -99.9 -99.99 -9.99
2019/10/12 07:24 PDT    1.73   1.89    4  356    6  56.8  63.3 1013.9 -9.9 -9.999 -99.9 -99.99 -9.99
2019/10/12 07:30 PDT    1.83   2.00    5  349    5  56.8  63.1 1013.9 -9.9 -9.999 -99.9 -99.99 -9.99
2019/10/12 07:36 PDT    1.93   2.11    4    9    5  56.5  63.1 1013.9 -9.9 -9.999 -99.9 -99.99 -9.99
2019/10/12 07:42 PDT    2.04   2.22    3   20    5  56.5  63.1 1014.0 -9.9 -9.999 -99.9 -99.99 -9.99
2019/10/12 07:48 PDT    2.15   2.33    3    9    6  56.5  63.0 1013.9 -9.9 -9.999 -99.9 -99.99 -9.99
2019/10/12 07:54 PDT    2.26   2.42    4   10    5  56.7  63.0 1013.9 -9.9 -9.999 -99.9 -99.99 -9.99
2019/10/12 08:00 PDT    2.37   2.55    4  359    5  56.8  62.8 1014.1 -9.9 -9.999 -99.9 -99.99 -9.99
2019/10/12 08:06 PDT    2.49   2.68    4  359    5  57.2  62.8 1014.1 -9.9 -9.999 -99.9 -99.99 -9.99
2019/10/12 08:12 PDT    2.61   2.80    3   18    5  57.7  62.8 1014.0 -9.9 -9.999 -99.9 -99.99 -9.99
2019/10/12 08:18 PDT    2.73   2.91    4    7    5  57.6  62.8 1014.1 -9.9 -9.999 -99.9 -99.99 -9.99
2019/10/12 08:24 PDT    2.85   3.04    5    4    6  57.4  62.8 1014.1 -9.9 -9.999 -99.9 -99.99 -9.99
2019/10/12 08:30 PDT    2.97   3.18    3   11    5  57.7  62.8 1014.1 -9.9 -9.999 -99.9 -99.99 -9.99
2019/10/12 08:36 PDT    3.10   3.31    2   17    5  58.1  62.6 1014.0 -9.9 -9.999 -99.9 -99.99 -9.99
2019/10/12 08:42 PDT    3.22   3.43    2   21    3  58.6  62.6 1014.1 -9.9 -9.999 -99.9 -99.99 -9.99
2019/10/12 08:48 PDT    3.35   3.55    2   17    3  59.0  62.6 1014.1 -9.9 -9.999 -99.9 -99.99 -9.99
2019/10/12 08:54 PDT    3.47   3.67    4    6    5  58.8  62.6 1014.1 -9.9 -9.999 -99.9 -99.99 -9.99
2019/10/12 09:00 PDT    3.60   3.80    3    4    4  58.8  62.6 1014.1 -9.9 -9.999 -99.9 -99.99 -9.99
2019/10/12 09:06 PDT    3.72   3.93    4  357    4  58.8  62.6 1014.2 -9.9 -9.999 -99.9 -99.99 -9.99
2019/10/12 09:12 PDT    3.84   4.06    3  347    4  59.0  62.6 1014.2 -9.9 -9.999 -99.9 -99.99 -9.99
2019/10/12 09:18 PDT    3.97   4.16    2  312    4  59.5  62.6 1014.3 -9.9 -9.999 -99.9 -99.99 -9.99
2019/10/12 09:24 PDT    4.09   4.28    2  326    3  59.9  62.6 1014.3 -9.9 -9.999 -99.9 -99.99 -9.99
2019/10/12 09:30 PDT    4.21   4.40    3  325    4  59.5  62.6 1014.4 -9.9 -9.999 -99.9 -99.99 -9.99
2019/10/12 09:36 PDT    4.33   4.51    3  314    5  59.7  62.6 1014.4 -9.9 -9.999 -99.9 -99.99 -9.99
2019/10/12 09:42 PDT    4.45   4.63    3  319    4  59.9  62.6 1014.4 -9.9 -9.999 -99.9 -99.99 -9.99
2019/10/12 09:48 PDT    4.56   4.75    2  318    5  60.3  62.6 1014.4 -9.9 -9.999 -99.9 -99.99 -9.99
2019/10/12 09:54 PDT    4.67   4.88    4  330    6  59.9  62.6 1014.4 -9.9 -9.999 -99.9 -99.99 -9.99
2019/10/12 10:00 PDT    4.79   4.98    3  335    5  60.1  62.6 1014.5 -9.9 -9.999 -99.9 -99.99 -9.99
2019/10/12 10:06 PDT    4.89   5.08    2  330    5  60.6  62.6 1014.5 -9.9 -9.999 -99.9 -99.99 -9.99
2019/10/12 10:12 PDT    5.00   5.17    2  306    3  61.0  62.6 1014.5 -9.9 -9.999 -99.9 -99.99 -9.99
2019/10/12 10:18 PDT    5.10   5.25    2  330    4  61.2  62.6 1014.5 -9.9 -9.999 -99.9 -99.99 -9.99
2019/10/12 10:24 PDT    5.20   5.34    2  300    3  61.2  62.6 1014.5 -9.9 -9.999 -99.9 -99.99 -9.99
2019/10/12 10:30 PDT    5.30   5.46    1  318    3  61.9  62.6 1014.5 -9.9 -9.999 -99.9 -99.99 -9.99
2019/10/12 10:36 PDT    5.39   5.58    2  340    4  62.1  62.6 1014.4 -9.9 -9.999 -99.9 -99.99 -9.99
2019/10/12 10:42 PDT    5.48   5.66    2  302    4  62.1  62.6 1014.4 -9.9 -9.999 -99.9 -99.99 -9.99
2019/10/12 10:48 PDT    5.56   5.72    3  277    4  61.9  62.6 1014.4 -9.9 -9.999 -99.9 -99.99 -9.99
2019/10/12 10:54 PDT    5.64   5.81    3  315    4  62.6  62.6 1014.4 -9.9 -9.999 -99.9 -99.99 -9.99
2019/10/12 11:00 PDT    5.71   5.89    3  285    5  62.6  62.6 1014.4 -9.9 -9.999 -99.9 -99.99 -9.99
2019/10/12 11:06 PDT    5.78   5.95    3  314    5  62.8  62.6 1014.4 -9.9 -9.999 -99.9 -99.99 -9.99
2019/10/12 11:12 PDT    5.84   6.01    4  282    5  62.8  62.6 1014.3 -9.9 -9.999 -99.9 -99.99 -9.99
2019/10/12 11:18 PDT    5.90   6.08    2  306    4  63.3  62.6 1014.3 -9.9 -9.999 -99.9 -99.99 -9.99
2019/10/12 11:24 PDT    5.95   6.13    3  330    4  63.3  62.6 1014.2 -9.9 -9.999 -99.9 -99.99 -9.99
2019/10/12 11:30 PDT    6.00   6.19    3  275    4  63.1  62.6 1014.2 -9.9 -9.999 -99.9 -99.99 -9.99
2019/10/12 11:36 PDT    6.04   6.24    4  272    6  63.0  62.6 1014.2 -9.9 -9.999 -99.9 -99.99 -9.99
2019/10/12 11:42 PDT    6.07   6.28    4  271    5  63.5  62.6 1014.1 -9.9 -9.999 -99.9 -99.99 -9.99
2019/10/12 11:48 PDT    6.09   6.30    4  273    5  63.5  62.6 1014.1 -9.9 -9.999 -99.9 -99.99 -9.99
2019/10/12 11:54 PDT    6.11   6.33    5  276    6  64.0  62.6 1014.0 -9.9 -9.999 -99.9 -99.99 -9.99
2019/10/12 12:00 PDT    6.12   6.37    5  277    7  63.7  62.6 1014.1 -9.9 -9.999 -99.9 -99.99 -9.99
2019/10/12 12:06 PDT    6.13   6.38    7  279    8  63.7  62.6 1014.1 -9.9 -9.999 -99.9 -99.99 -9.99
2019/10/12 12:12 PDT    6.12   6.38    6  279    8  64.0  62.6 1014.0 -9.9 -9.999 -99.9 -99.99 -9.99
2019/10/12 12:18 PDT    6.11   6.36    5  277    7  64.4  62.6 1013.9 -9.9 -9.999 -99.9 -99.99 -9.99
2019/10/12 12:24 PDT    6.09   6.33    5  278    6  65.3  62.6 1013.8 -9.9 -9.999 -99.9 -99.99 -9.99
2019/10/12 12:30 PDT    6.07   6.31    5  277    6  65.5  62.6 1013.7 -9.9 -9.999 -99.9 -99.99 -9.99
2019/10/12 12:36 PDT    6.04   6.29    6  277    7  65.5  62.6 1013.7 -9.9 -9.999 -99.9 -99.99 -9.99
2019/10/12 12:42 PDT    6.00   6.25    5  279    7  66.9  62.6 1013.6 -9.9 -9.999 -99.9 -99.99 -9.99
2019/10/12 12:48 PDT    5.95   6.21    4  292    6  68.5  62.6 1013.5 -9.9 -9.999 -99.9 -99.99 -9.99
2019/10/12 12:54 PDT    5.89   6.17    4  302    6  69.3  62.6 1013.5 -9.9 -9.999 -99.9 -99.99 -9.99
2019/10/12 13:00 PDT    5.83   6.11    3  320    4  69.1  62.6 1013.4 -9.9 -9.999 -99.9 -99.99 -9.99
2019/10/12 13:06 PDT    5.76   6.02    4  324    6  69.3  62.6 1013.3 -9.9 -9.999 -99.9 -99.99 -9.99
2019/10/12 13:12 PDT    5.69   5.92    3  295    6  70.0  62.6 1013.2 -9.9 -9.999 -99.9 -99.99 -9.99
2019/10/12 13:18 PDT    5.61   5.81    4  295    6  70.0  62.6 1013.2 -9.9 -9.999 -99.9 -99.99 -9.99
2019/10/12 13:24 PDT    5.52   5.73    4  310    7  70.0  62.6 1013.0 -9.9 -9.999 -99.9 -99.99 -9.99
2019/10/12 13:30 PDT    5.43   5.65    3  330    6  70.7  62.6 1012.9 -9.9 -9.999 -99.9 -99.99 -9.99
2019/10/12 13:36 PDT    5.33   5.52    5  325    7  70.3  62.6 1012.8 -9.9 -9.999 -99.9 -99.99 -9.99
2019/10/12 13:42 PDT    5.23   5.38    4  310    7  70.9  62.6 1012.7 -9.9 -9.999 -99.9 -99.99 -9.99
2019/10/12 13:48 PDT    5.12   5.27    4  324    6  71.2  62.8 1012.6 -9.9 -9.999 -99.9 -99.99 -9.99
2019/10/12 13:54 PDT    5.01   5.16    4  311    6  71.6  62.8 1012.5 -9.9 -9.999 -99.9 -99.99 -9.99
2019/10/12 14:00 PDT    4.90   5.03    4  301    7  72.1  62.8 1012.5 -9.9 -9.999 -99.9 -99.99 -9.99
2019/10/12 14:06 PDT    4.78   4.89    4  313    7  72.0  62.8 1012.4 -9.9 -9.999 -99.9 -99.99 -9.99
2019/10/12 14:12 PDT    4.66   4.76    5  291    7  72.1  62.8 1012.4 -9.9 -9.999 -99.9 -99.99 -9.99
2019/10/12 14:18 PDT    4.53   4.63    5  285    7  71.6  62.8 1012.3 -9.9 -9.999 -99.9 -99.99 -9.99
2019/10/12 14:24 PDT    4.40   4.48    5  283    7  71.6  62.8 1012.2 -9.9 -9.999 -99.9 -99.99 -9.99
2019/10/12 14:30 PDT    4.28   4.33    5  286    7  72.3  62.8 1012.1 -9.9 -9.999 -99.9 -99.99 -9.99
2019/10/12 14:36 PDT    4.15   4.18    4  286    7  72.9  62.8 1012.0 -9.9 -9.999 -99.9 -99.99 -9.99
2019/10/12 14:42 PDT    4.02   4.03    4  288    6  73.4  62.8 1011.9 -9.9 -9.999 -99.9 -99.99 -9.99
2019/10/12 14:48 PDT    3.89   3.90    3  298    5  73.8  62.8 1011.8 -9.9 -9.999 -99.9 -99.99 -9.99
2019/10/12 14:54 PDT    3.75   3.78    4  292    6  73.6  62.8 1011.8 -9.9 -9.999 -99.9 -99.99 -9.99
2019/10/12 15:00 PDT    3.62   3.66    3  291    6  73.4  62.8 1011.7 -9.9 -9.999 -99.9 -99.99 -9.99
2019/10/12 15:06 PDT    3.49   3.53    2  301    4  74.8  62.8 1011.7 -9.9 -9.999 -99.9 -99.99 -9.99
2019/10/12 15:12 PDT    3.36   3.37    3  320    5  74.5  62.8 1011.6 -9.9 -9.999 -99.9 -99.99 -9.99
2019/10/12 15:18 PDT    3.23   3.23    3  311    5  74.8  62.8 1011.6 -9.9 -9.999 -99.9 -99.99 -9.99
2019/10/12 15:24 PDT    3.10   3.09    3  314    5  75.0  63.0 1011.5 -9.9 -9.999 -99.9 -99.99 -9.99
2019/10/12 15:30 PDT    2.98   2.96    3  299    5  75.6  63.0 1011.5 -9.9 -9.999 -99.9 -99.99 -9.99
2019/10/12 15:36 PDT    2.85   2.84    4  299    5  74.8  63.0 1011.5 -9.9 -9.999 -99.9 -99.99 -9.99
2019/10/12 15:42 PDT    2.73   2.74    7  282    9  72.5  63.0 1011.5 -9.9 -9.999 -99.9 -99.99 -9.99
2019/10/12 15:48 PDT    2.61   2.63    5  286    7  72.7  63.0 1011.4 -9.9 -9.999 -99.9 -99.99 -9.99
2019/10/12 15:54 PDT    2.50   2.50    4  300    7  72.9  63.0 1011.4 -9.9 -9.999 -99.9 -99.99 -9.99
2019/10/12 16:00 PDT    2.38   2.37    3  305    7  73.9  63.1 1011.4 -9.9 -9.999 -99.9 -99.99 -9.99
2019/10/12 16:06 PDT    2.27   2.26    6  280   10  72.5  63.1 1011.4 -9.9 -9.999 -99.9 -99.99 -9.99
2019/10/12 16:12 PDT    2.16   2.16    7  282   10  70.0  63.1 1011.4 -9.9 -9.999 -99.9 -99.99 -9.99
2019/10/12 16:18 PDT    2.06   2.10    7  281    8  68.5  63.1 1011.4 -9.9 -9.999 -99.9 -99.99 -9.99
2019/10/12 16:24 PDT    1.96   2.03    7  282    8  68.7  63.1 1011.4 -9.9 -9.999 -99.9 -99.99 -9.99
2019/10/12 16:30 PDT    1.87   1.94    7  282    9  68.9  63.3 1011.3 -9.9 -9.999 -99.9 -99.99 -9.99
2019/10/12 16:36 PDT    1.77   1.84    5  284    8  69.8  63.3 1011.3 -9.9 -9.999 -99.9 -99.99 -9.99
2019/10/12 16:42 PDT    1.69   1.75    5  283    6  69.8  63.3 1011.2 -9.9 -9.999 -99.9 -99.99 -9.99
2019/10/12 16:48 PDT    1.60   1.69    6  280    7  69.4  63.3 1011.2 -9.9 -9.999 -99.9 -99.99 -9.99
2019/10/12 16:54 PDT    1.53   1.63    5  284    7  70.0  63.3 1011.2 -9.9 -9.999 -99.9 -99.99 -9.99
2019/10/12 17:00 PDT    1.45   1.57    5  282    6  70.0  63.5 1011.1 -9.9 -9.999 -99.9 -99.99 -9.99
2019/10/12 17:06 PDT    1.39   1.51    5  284    7  70.0  63.5 1011.1 -9.9 -9.999 -99.9 -99.99 -9.99
2019/10/12 17:12 PDT    1.32   1.45    5  288    7  70.2  63.7 1011.0 -9.9 -9.999 -99.9 -99.99 -9.99
2019/10/12 17:18 PDT    1.27   1.38    5  290    8  69.6  63.7 1011.0 -9.9 -9.999 -99.9 -99.99 -9.99
2019/10/12 17:24 PDT    1.22   1.34    4  299    6  70.0  63.7 1011.0 -9.9 -9.999 -99.9 -99.99 -9.99
2019/10/12 17:30 PDT    1.17   1.30    3  313    4  70.2  63.7 1010.9 -9.9 -9.999 -99.9 -99.99 -9.99
2019/10/12 17:36 PDT    1.13   1.25    3  316    6  70.5  63.7 1010.9 -9.9 -9.999 -99.9 -99.99 -9.99
2019/10/12 17:42 PDT    1.10   1.21    3  297    4  71.2  63.9 1010.8 -9.9 -9.999 -99.9 -99.99 -9.99
2019/10/12 17:48 PDT    1.07   1.18    4  286    5  70.7  63.9 1010.8 -9.9 -9.999 -99.9 -99.99 -9.99
2019/10/12 17:54 PDT    1.05   1.16    5  288    6  70.5  63.9 1010.9 -9.9 -9.999 -99.9 -99.99 -9.99
2019/10/12 18:00 PDT    1.04   1.15    5  290    7  69.6  63.9 1010.9 -9.9 -9.999 -99.9 -99.99 -9.99
2019/10/12 18:06 PDT    1.03   1.19    4  289    6  69.6  63.9 1010.8 -9.9 -9.999 -99.9 -99.99 -9.99
2019/10/12 18:12 PDT    1.03   1.18    4  290    5  68.9  63.9 1010.8 -9.9 -9.999 -99.9 -99.99 -9.99
2019/10/12 18:18 PDT    1.03   1.18    6  287    6  68.2  63.9 1010.8 -9.9 -9.999 -99.9 -99.99 -9.99
2019/10/12 18:24 PDT    1.04   1.17    5  290    7  67.6  63.9 1010.8 -9.9 -9.999 -99.9 -99.99 -9.99
2019/10/12 18:30 PDT    1.06   1.21    4  292    6  67.5  63.9 1010.8 -9.9 -9.999 -99.9 -99.99 -9.99
2019/10/12 18:36 PDT    1.09   1.24    4  294    5  67.3  63.9 1010.8 -9.9 -9.999 -99.9 -99.99 -9.99
2019/10/12 18:42 PDT    1.12   1.28    4  294    6  67.1  63.9 1010.8 -9.9 -9.999 -99.9 -99.99 -9.99
2019/10/12 18:48 PDT    1.15   1.32    4  293    6  66.9  63.9 1010.8 -9.9 -9.999 -99.9 -99.99 -9.99
2019/10/12 18:54 PDT    1.20   1.38    6  288    7  66.4  63.9 1010.9 -9.9 -9.999 -99.9 -99.99 -9.99
2019/10/12 19:00 PDT    1.25   1.43    9  284   10  65.8  63.9 1011.0 -9.9 -9.999 -99.9 -99.99 -9.99
2019/10/12 19:06 PDT    1.30   1.52    9  285   11  65.5  63.9 1011.0 -9.9 -9.999 -99.9 -99.99 -9.99
2019/10/12 19:12 PDT    1.36   1.58    9  289   11  65.3  63.9 1011.0 -9.9 -9.999 -99.9 -99.99 -9.99
2019/10/12 19:18 PDT    1.43   1.65    9  284   12  65.1  63.9 1011.1 -9.9 -9.999 -99.9 -99.99 -9.99
2019/10/12 19:24 PDT    1.50   1.70    8  286   11  65.1  63.7 1011.1 -9.9 -9.999 -99.9 -99.99 -9.99
2019/10/12 19:30 PDT    1.58   1.80    7  283   11  64.8  63.7 1011.2 -9.9 -9.999 -99.9 -99.99 -9.99
2019/10/12 19:36 PDT    1.66   1.92    6  286   10  64.8  63.7 1011.1 -9.9 -9.999 -99.9 -99.99 -9.99
2019/10/12 19:42 PDT    1.75   2.01    6  284    8  64.6  63.7 1011.2 -9.9 -9.999 -99.9 -99.99 -9.99
2019/10/12 19:48 PDT    1.84   2.10    6  286    9  64.4  63.7 1011.3 -9.9 -9.999 -99.9 -99.99 -9.99
2019/10/12 19:54 PDT    1.94   2.20    7  285    9  64.2  63.9 1011.3 -9.9 -9.999 -99.9 -99.99 -9.99
2019/10/12 20:00 PDT    2.04   2.31    8  287   10  64.4  63.9 1011.3 -9.9 -9.999 -99.9 -99.99 -9.99
2019/10/12 20:06 PDT    2.14   2.41    9  285   11  64.4  63.9 1011.4 -9.9 -9.999 -99.9 -99.99 -9.99
2019/10/12 20:12 PDT    2.24   2.51    7  288   11  64.6  63.9 1011.4 -9.9 -9.999 -99.9 -99.99 -9.99
2019/10/12 20:18 PDT    2.35   2.63    6  286    9  64.8  63.9 1011.4 -9.9 -9.999 -99.9 -99.99 -9.99
2019/10/12 20:24 PDT    2.46   2.75    5  287    7  64.4  63.9 1011.5 -9.9 -9.999 -99.9 -99.99 -9.99
2019/10/12 20:30 PDT    2.57   2.85    5  287    6  64.2  63.9 1011.5 -9.9 -9.999 -99.9 -99.99 -9.99
2019/10/12 20:36 PDT    2.69   2.94    3  290    5  64.4  63.9 1011.6 -9.9 -9.999 -99.9 -99.99 -9.99
2019/10/12 20:42 PDT    2.80   3.04    2  339    3  64.0  63.9 1011.6 -9.9 -9.999 -99.9 -99.99 -9.99
2019/10/12 20:48 PDT    2.92   3.18    0  184    3  63.7  63.9 1011.7 -9.9 -9.999 -99.9 -99.99 -9.99
2019/10/12 20:54 PDT    3.04   3.32    2   25    3  63.3  63.9 1011.7 -9.9 -9.999 -99.9 -99.99 -9.99
2019/10/12 21:00 PDT    3.16   3.44    2  303    5  63.3  63.9 1011.7 -9.9 -9.999 -99.9 -99.99 -9.99
2019/10/12 21:06 PDT    3.27   3.55    2  336    4  63.1  63.9 1011.7 -9.9 -9.999 -99.9 -99.99 -9.99
2019/10/12 21:12 PDT    3.39   3.66    4  334    6  62.2  63.9 1011.7 -9.9 -9.999 -99.9 -99.99 -9.99
2019/10/12 21:18 PDT    3.51   3.77    3  319    5  61.9  63.7 1011.7 -9.9 -9.999 -99.9 -99.99 -9.99
2019/10/12 21:24 PDT    3.63   3.90    3  332    4  62.1  63.7 1011.7 -9.9 -9.999 -99.9 -99.99 -9.99
2019/10/12 21:30 PDT    3.74   4.03    4  342    5  62.1  63.7 1011.7 -9.9 -9.999 -99.9 -99.99 -9.99
2019/10/12 21:36 PDT    3.86   4.15    2  318    4  62.2  63.5 1011.7 -9.9 -9.999 -99.9 -99.99 -9.99
2019/10/12 21:42 PDT    3.98   4.25    4  354    5  61.9  63.5 1011.8 -9.9 -9.999 -99.9 -99.99 -9.99
2019/10/12 21:48 PDT    4.09   4.36    2  349    5  62.1  63.3 1011.8 -9.9 -9.999 -99.9 -99.99 -9.99
2019/10/12 21:54 PDT    4.20   4.47    3   27    5  61.9  63.3 1011.8 -9.9 -9.999 -99.9 -99.99 -9.99
2019/10/12 22:00 PDT    4.31   4.57    2   23    3  61.7  63.3 1011.8 -9.9 -9.999 -99.9 -99.99 -9.99
2019/10/12 22:06 PDT    4.42   4.67    2   19    3  61.5  63.5 1011.8 -9.9 -9.999 -99.9 -99.99 -9.99
2019/10/12 22:12 PDT    4.52   4.77    2  353    4  61.5  63.5 1011.8 -9.9 -9.999 -99.9 -99.99 -9.99
2019/10/12 22:18 PDT    4.62   4.87    2   28    3  61.7  63.5 1011.9 -9.9 -9.999 -99.9 -99.99 -9.99
2019/10/12 22:24 PDT    4.72   4.97    1   27    3  61.5  63.5 1011.9 -9.9 -9.999 -99.9 -99.99 -9.99
2019/10/12 22:30 PDT    4.82   5.07    1   29    4  61.3  63.5 1011.9 -9.9 -9.999 -99.9 -99.99 -9.99
2019/10/12 22:36 PDT    4.91   5.15    1   19    2  61.2  63.5 1011.9 -9.9 -9.999 -99.9 -99.99 -9.99
2019/10/12 22:42 PDT    5.00   5.23    0   43    1  61.2  63.5 1011.8 -9.9 -9.999 -99.9 -99.99 -9.99
2019/10/12 22:48 PDT    5.09   5.31    1   38    2  61.0  63.3 1011.8 -9.9 -9.999 -99.9 -99.99 -9.99
2019/10/12 22:54 PDT    5.17   5.40    0   86    1  61.0  63.3 1011.8 -9.9 -9.999 -99.9 -99.99 -9.99
2019/10/12 23:00 PDT    5.25   5.49    1   58    1  60.8  63.3 1011.8 -9.9 -9.999 -99.9 -99.99 -9.99
2019/10/12 23:06 PDT    5.33   5.57    0   82    2  60.4  63.3 1011.8 -9.9 -9.999 -99.9 -99.99 -9.99
2019/10/12 23:12 PDT    5.39   5.65    1   11    3  60.4  63.3 1011.8 -9.9 -9.999 -99.9 -99.99 -9.99
2019/10/12 23:18 PDT    5.46   5.72    1   16    3  60.4  63.3 1011.8 -9.9 -9.999 -99.9 -99.99 -9.99
2019/10/12 23:24 PDT    5.52   5.78    1   29    2  60.4  63.3 1011.7 -9.9 -9.999 -99.9 -99.99 -9.99
2019/10/12 23:30 PDT    5.57   5.82    0   52    1  60.4  63.3 1011.7 -9.9 -9.999 -99.9 -99.99 -9.99
2019/10/12 23:36 PDT    5.62   5.87    0   70    2  60.4  63.1 1011.7 -9.9 -9.999 -99.9 -99.99 -9.99
2019/10/12 23:42 PDT    5.66   5.95    0  113    2  60.3  63.3 1011.6 -9.9 -9.999 -99.9 -99.99 -9.99
2019/10/12 23:48 PDT    5.70   6.01    0  136    0  60.3  63.3 1011.7 -9.9 -9.999 -99.9 -99.99 -9.99
2019/10/12 23:54 PDT    5.73   6.04    1  167    1  60.3  63.3 1011.7 -9.9 -9.999 -99.9 -99.99 -9.99
2019/10/13 00:00 PDT    5.76   6.06    3  222    4  60.3  63.3 1011.8 -9.9 -9.999 -99.9 -99.99 -9.99
2019/10/13 00:06 PDT    5.78   6.05    4  243    5  59.9  63.3 1011.8 -9.9 -9.999 -99.9 -99.99 -9.99
2019/10/13 00:12 PDT    5.79   6.04    4  258    6  59.7  63.1 1011.8 -9.9 -9.999 -99.9 -99.99 -9.99
2019/10/13 00:18 PDT    5.79   6.07    2  265    4  59.9  63.1 1011.8 -9.9 -9.999 -99.9 -99.99 -9.99
2019/10/13 00:24 PDT    5.79   6.10    3  243    4  59.2  63.1 1011.8 -9.9 -9.999 -99.9 -99.99 -9.99
2019/10/13 00:30 PDT    5.78   6.11    2  290    4  59.0  63.1 1011.8 -9.9 -9.999 -99.9 -99.99 -9.99
2019/10/13 00:36 PDT    5.76   6.08    2  303    2  59.2  63.1 1011.7 -9.9 -9.999 -99.9 -99.99 -9.99
2019/10/13 00:42 PDT    5.74   6.03    1  274    3  59.7  63.1 1011.7 -9.9 -9.999 -99.9 -99.99 -9.99
2019/10/13 00:48 PDT    5.71   6.01    3  255    5  59.0  63.1 1011.7 -9.9 -9.999 -99.9 -99.99 -9.99
2019/10/13 00:54 PDT    5.67   5.99    2  285    4  58.5  63.1 1011.8 -9.9 -9.999 -99.9 -99.99 -9.99
2019/10/13 01:00 PDT    5.63   5.94    2  270    3  59.0  63.1 1011.7 -9.9 -9.999 -99.9 -99.99 -9.99
2019/10/13 01:06 PDT    5.58   5.90    2  290    3  58.5  63.1 1011.8 -9.9 -9.999 -99.9 -99.99 -9.99
2019/10/13 01:12 PDT    5.52   5.84    4  268    5  58.6  63.1 1011.8 -9.9 -9.999 -99.9 -99.99 -9.99
2019/10/13 01:18 PDT    5.46   5.78    3  295    5  58.5  63.1 1011.8 -9.9 -9.999 -99.9 -99.99 -9.99
2019/10/13 01:24 PDT    5.39   5.71    1  303    3  58.5  63.1 1011.8 -9.9 -9.999 -99.9 -99.99 -9.99
2019/10/13 01:30 PDT    5.31   5.63    0   23    1  58.1  63.1 1011.8 -9.9 -9.999 -99.9 -99.99 -9.99
2019/10/13 01:36 PDT    5.23   5.51    0   59    2  57.9  63.1 1011.8 -9.9 -9.999 -99.9 -99.99 -9.99
2019/10/13 01:42 PDT    5.14   5.40    1   43    2  57.7  63.1 1011.7 -9.9 -9.999 -99.9 -99.99 -9.99
2019/10/13 01:48 PDT    5.05   5.33    0   85    2  57.7  63.1 1011.7 -9.9 -9.999 -99.9 -99.99 -9.99
2019/10/13 01:54 PDT    4.95   5.25    1   52    2  58.1  63.1 1011.7 -9.9 -9.999 -99.9 -99.99 -9.99
2019/10/13 02:00 PDT    4.85   5.12    0  124    1  57.7  63.1 1011.6 -9.9 -9.999 -99.9 -99.99 -9.99
2019/10/13 02:06 PDT    4.74   4.99    1  125    2  57.6  63.1 1011.6 -9.9 -9.999 -99.9 -99.99 -9.99
2019/10/13 02:12 PDT    4.63   4.85    1   61    2  57.7  63.1 1011.6 -9.9 -9.999 -99.9 -99.99 -9.99
2019/10/13 02:18 PDT    4.52   4.69    1  123    1  57.2  63.1 1011.5 -9.9 -9.999 -99.9 -99.99 -9.99
2019/10/13 02:24 PDT    4.40   4.57    0  113    1  57.4  63.1 1011.5 -9.9 -9.999 -99.9 -99.99 -9.99
2019/10/13 02:30 PDT    4.29   4.47    0   99    1  57.2  63.1 1011.4 -9.9 -9.999 -99.9 -99.99 -9.99
2019/10/13 02:36 PDT    4.17   4.36    1  324    2  57.2  63.1 1011.5 -9.9 -9.999 -99.9 -99.99 -9.99
2019/10/13 02:42 PDT    4.04   4.23    0  347    2  57.4  63.1 1011.4 -9.9 -9.999 -99.9 -99.99 -9.99
2019/10/13 02:48 PDT    3.92   4.10    1  288    2  57.7  63.3 1011.5 -9.9 -9.999 -99.9 -99.99 -9.99
2019/10/13 02:54 PDT    3.80   3.94    1  295    2  57.7  63.3 1011.4 -9.9 -9.999 -99.9 -99.99 -9.99
2019/10/13 03:00 PDT    3.67   3.80    0  292    1  57.6  63.3 1011.4 -9.9 -9.999 -99.9 -99.99 -9.99
2019/10/13 03:06 PDT    3.55   3.68    0   64    1  57.6  63.3 1011.3 -9.9 -9.999 -99.9 -99.99 -9.99
2019/10/13 03:12 PDT    3.42   3.55    0   42    1  57.4  63.3 1011.3 -9.9 -9.999 -99.9 -99.99 -9.99
2019/10/13 03:18 PDT    3.30   3.43    1   19    1  57.4  63.3 1011.3 -9.9 -9.999 -99.9 -99.99 -9.99
2019/10/13 03:24 PDT    3.18   3.32    2    5    2  57.6  63.3 1011.3 -9.9 -9.999 -99.9 -99.99 -9.99
2019/10/13 03:30 PDT    3.05   3.19    1  337    3  57.7  63.3 1011.2 -9.9 -9.999 -99.9 -99.99 -9.99
2019/10/13 03:36 PDT    2.94   3.06    1   47    2  57.6  63.3 1011.1 -9.9 -9.999 -99.9 -99.99 -9.99
2019/10/13 03:42 PDT    2.82   2.95    1  360    2  57.2  63.3 1011.2 -9.9 -9.999 -99.9 -99.99 -9.99
2019/10/13 03:48 PDT    2.70   2.82    3  304    4  57.7  63.3 1011.2 -9.9 -9.999 -99.9 -99.99 -9.99
2019/10/13 03:54 PDT    2.59   2.69    3  298    4  57.7  63.3 1011.3 -9.9 -9.999 -99.9 -99.99 -9.99
2019/10/13 04:00 PDT    2.48   2.57    3  342    3  57.9  63.3 1011.3 -9.9 -9.999 -99.9 -99.99 -9.99
2019/10/13 04:06 PDT    2.37   2.47    1   91    4  57.7  63.3 1011.2 -9.9 -9.999 -99.9 -99.99 -9.99
2019/10/13 04:12 PDT    2.27   2.37    1   83    3  57.0  63.3 1011.3 -9.9 -9.999 -99.9 -99.99 -9.99
2019/10/13 04:18 PDT    2.17   2.28    1   47    2  56.7  63.3 1011.3 -9.9 -9.999 -99.9 -99.99 -9.99
2019/10/13 04:24 PDT    2.07   2.16    2   21    3  56.5  63.3 1011.4 -9.9 -9.999 -99.9 -99.99 -9.99
2019/10/13 04:30 PDT    1.98   2.06    2   42    4  56.3  63.3 1011.4 -9.9 -9.999 -99.9 -99.99 -9.99
2019/10/13 04:36 PDT    1.89   1.98    4   10    5  56.1  63.3 1011.5 -9.9 -9.999 -99.9 -99.99 -9.99
2019/10/13 04:42 PDT    1.81   1.91    1   62    4  55.9  63.3 1011.4 -9.9 -9.999 -99.9 -99.99 -9.99
2019/10/13 04:48 PDT    1.73   1.86    3    9    5  55.8  63.3 1011.5 -9.9 -9.999 -99.9 -99.99 -9.99
2019/10/13 04:54 PDT    1.65   1.81    2   35    4  55.6  63.3 1011.4 -9.9 -9.999 -99.9 -99.99 -9.99
2019/10/13 05:00 PDT    1.58   1.73    1  155    3  55.2  63.3 1011.3 -9.9 -9.999 -99.9 -99.99 -9.99
2019/10/13 05:06 PDT    1.51   1.65    0  120    2  55.2  63.3 1011.3 -9.9 -9.999 -99.9 -99.99 -9.99
2019/10/13 05:12 PDT    1.45   1.58    1  107    2  55.4  63.3 1011.3 -9.9 -9.999 -99.9 -99.99 -9.99
2019/10/13 05:18 PDT    1.39   1.53    2   21    3  55.0  63.3 1011.3 -9.9 -9.999 -99.9 -99.99 -9.99
2019/10/13 05:24 PDT    1.34   1.50    3    3    5  55.4  63.3 1011.4 -9.9 -9.999 -99.9 -99.99 -9.99
2019/10/13 05:30 PDT    1.30   1.48    4  356    5  55.2  63.3 1011.4 -9.9 -9.999 -99.9 -99.99 -9.99
2019/10/13 05:36 PDT    1.26   1.41    3  355    5  55.4  63.3 1011.4 -9.9 -9.999 -99.9 -99.99 -9.99
2019/10/13 05:42 PDT    1.22   1.36    2    4    4  55.2  63.3 1011.4 -9.9 -9.999 -99.9 -99.99 -9.99
2019/10/13 05:48 PDT    1.19   1.33    4  351    4  55.4  63.3 1011.5 -9.9 -9.999 -99.9 -99.99 -9.99
2019/10/13 05:54 PDT    1.17   1.32    4  349    5  55.4  63.3 1011.5 -9.9 -9.999 -99.9 -99.99 -9.99
2019/10/13 06:00 PDT    1.15   1.31    2   20    5  55.4  63.3 1011.5 -9.9 -9.999 -99.9 -99.99 -9.99
2019/10/13 06:06 PDT    1.14   1.33    2    3    3  55.6  63.3 1011.5 -9.9 -9.999 -99.9 -99.99 -9.99
2019/10/13 06:12 PDT    1.14   1.34    2    3    4  55.9  63.3 1011.6 -9.9 -9.999 -99.9 -99.99 -9.99
2019/10/13 06:18 PDT    1.14   1.32    2    6    4  55.8  63.3 1011.5 -9.9 -9.999 -99.9 -99.99 -9.99
2019/10/13 06:24 PDT    1.15   1.29    1   20    2  55.8  63.3 1011.5 -9.9 -9.999 -99.9 -99.99 -9.99
2019/10/13 06:30 PDT    1.16   1.31    1   35    2  55.4  63.3 1011.5 -9.9 -9.999 -99.9 -99.99 -9.99
2019/10/13 06:36 PDT    1.18   1.34    1  123    3  55.2  63.3 1011.5 -9.9 -9.999 -99.9 -99.99 -9.99
2019/10/13 06:42 PDT    1.21   1.40    1  112    2  54.7  63.3 1011.4 -9.9 -9.999 -99.9 -99.99 -9.99
2019/10/13 06:48 PDT    1.24   1.44    0  164    2  54.5  63.3 1011.4 -9.9 -9.999 -99.9 -99.99 -9.99
2019/10/13 06:54 PDT    1.28   1.48    1  123    2  54.5  63.3 1011.3 -9.9 -9.999 -99.9 -99.99 -9.99
2019/10/13 07:00 PDT    1.32   1.51    1  117    2  54.5  63.3 1011.3 -9.9 -9.999 -99.9 -99.99 -9.99
2019/10/13 07:06 PDT    1.38   1.55    2  346    3  54.5  63.3 1011.4 -9.9 -9.999 -99.9 -99.99 -9.99
2019/10/13 07:12 PDT    1.43   1.61    2  345    4  55.0  63.3 1011.4 -9.9 -9.999 -99.9 -99.99 -9.99
2019/10/13 07:18 PDT    1.49   1.67    1   34    4  55.0  63.3 1011.3 -9.9 -9.999 -99.9 -99.99 -9.99
2019/10/13 07:24 PDT    1.56   1.77    2   10    2  55.0  63.3 1011.4 -9.9 -9.999 -99.9 -99.99 -9.99
2019/10/13 07:30 PDT    1.64   1.87    2  335    3  55.2  63.1 1011.4 -9.9 -9.999 -99.9 -99.99 -9.99
2019/10/13 07:36 PDT    1.72   1.94    3  358    3  55.2  63.0 1011.4 -9.9 -9.999 -99.9 -99.99 -9.99
2019/10/13 07:42 PDT    1.80   2.01    2   12    3  55.2  63.0 1011.4 -9.9 -9.999 -99.9 -99.99 -9.99
2019/10/13 07:48 PDT    1.89   2.13    2  338    3  55.4  63.0 1011.6 -9.9 -9.999 -99.9 -99.99 -9.99
2019/10/13 07:54 PDT    1.98   2.22    2  333    3  55.6  63.0 1011.6 -9.9 -9.999 -99.9 -99.99 -9.99
2019/10/13 08:00 PDT    2.08   2.30    1  299    2  55.8  63.0 1011.7 -9.9 -9.999 -99.9 -99.99 -9.99
2019/10/13 08:06 PDT    2.18   2.40    2  315    3  55.6  63.0 1011.8 -9.9 -9.999 -99.9 -99.99 -9.99
2019/10/13 08:12 PDT    2.29   2.52    3  286    5  54.9  62.8 1011.8 -9.9 -9.999 -99.9 -99.99 -9.99
2019/10/13 08:18 PDT    2.40   2.62    2  325    4  54.5  62.8 1011.8 -9.9 -9.999 -99.9 -99.99 -9.99
2019/10/13 08:24 PDT    2.51   2.76    2  324    3  54.5  62.8 1011.8 -9.9 -9.999 -99.9 -99.99 -9.99
2019/10/13 08:30 PDT    2.62   2.88    3  291    4  54.7  62.8 1011.9 -9.9 -9.999 -99.9 -99.99 -9.99
2019/10/13 08:36 PDT    2.74   3.03    3  290    3  54.7  62.6 1012.0 -9.9 -9.999 -99.9 -99.99 -9.99
2019/10/13 08:42 PDT    2.86   3.15    4  282    4  54.5  62.6 1012.0 -9.9 -9.999 -99.9 -99.99 -9.99
2019/10/13 08:48 PDT    2.98   3.27    3  281    4  54.5  62.6 1012.0 -9.9 -9.999 -99.9 -99.99 -9.99
2019/10/13 08:54 PDT    3.10   3.39    4  282    5  54.7  62.6 1012.1 -9.9 -9.999 -99.9 -99.99 -9.99
2019/10/13 09:00 PDT    3.23   3.51    4  285    5  54.7  62.4 1012.1 -9.9 -9.999 -99.9 -99.99 -9.99
2019/10/13 09:06 PDT    3.35   3.63    5  281    6  54.7  62.4 1012.2 -9.9 -9.999 -99.9 -99.99 -9.99
2019/10/13 09:12 PDT    3.48   3.76    4  277    6  54.7  62.4 1012.2 -9.9 -9.999 -99.9 -99.99 -9.99
2019/10/13 09:18 PDT    3.60   3.88    4  279    5  55.0  62.4 1012.2 -9.9 -9.999 -99.9 -99.99 -9.99
2019/10/13 09:24 PDT    3.72   4.00    2  336    5  55.8  62.4 1012.2 -9.9 -9.999 -99.9 -99.99 -9.99
2019/10/13 09:30 PDT    3.85   4.10    3  300    4  55.9  62.4 1012.2 -9.9 -9.999 -99.9 -99.99 -9.99
2019/10/13 09:36 PDT    3.97   4.20    3  285    5  55.9  62.4 1012.2 -9.9 -9.999 -99.9 -99.99 -9.99
2019/10/13 09:42 PDT    4.09   4.31    3  284    4  55.9  62.4 1012.2 -9.9 -9.999 -99.9 -99.99 -9.99
2019/10/13 09:48 PDT    4.22   4.43    4  289    5  56.1  62.4 1012.2 -9.9 -9.999 -99.9 -99.99 -9.99
2019/10/13 09:54 PDT    4.34   4.58    3  307    5  56.3  62.4 1012.2 -9.9 -9.999 -99.9 -99.99 -9.99
2019/10/13 10:00 PDT    4.45   4.69    4  286    5  56.5  62.4 1012.2 -9.9 -9.999 -99.9 -99.99 -9.99
2019/10/13 10:06 PDT    4.57   4.80    3  295    5  57.0  62.4 1012.3 -9.9 -9.999 -99.9 -99.99 -9.99
2019/10/13 10:12 PDT    4.68   4.89    4  288    5  56.7  62.4 1012.3 -9.9 -9.999 -99.9 -99.99 -9.99
2019/10/13 10:18 PDT    4.79   5.01    2  292    4  57.4  62.4 1012.3 -9.9 -9.999 -99.9 -99.99 -9.99
2019/10/13 10:24 PDT    4.90   5.14    2  303    4  57.7  62.4 1012.3 -9.9 -9.999 -99.9 -99.99 -9.99
2019/10/13 10:30 PDT    5.01   5.27    3  273    4  57.7  62.4 1012.3 -9.9 -9.999 -99.9 -99.99 -9.99
2019/10/13 10:36 PDT    5.11   5.37    4  276    5  57.2  62.4 1012.4 -9.9 -9.999 -99.9 -99.99 -9.99
2019/10/13 10:42 PDT    5.21   5.47    4  277    5  57.4  62.4 1012.4 -9.9 -9.999 -99.9 -99.99 -9.99
2019/10/13 10:48 PDT    5.31   5.56    5  277    6  57.7  62.4 1012.5 -9.9 -9.999 -99.9 -99.99 -9.99
2019/10/13 10:54 PDT    5.40   5.66    4  277    6  58.5  62.4 1012.5 -9.9 -9.999 -99.9 -99.99 -9.99
2019/10/13 11:00 PDT    5.49   5.76    3  308    6  59.5  62.4 1012.4 -9.9 -9.999 -99.9 -99.99 -9.99
2019/10/13 11:06 PDT    5.57   5.85    3  343    6  59.9  62.4 1012.4 -9.9 -9.999 -99.9 -99.99 -9.99
2019/10/13 11:12 PDT    5.65   5.92    4  340    6  59.9  62.4 1012.4 -9.9 -9.999 -99.9 -99.99 -9.99
2019/10/13 11:18 PDT    5.73   6.00    3  306    4  60.4  62.4 1012.3 -9.9 -9.999 -99.9 -99.99 -9.99
2019/10/13 11:24 PDT    5.80   6.07    3  333    6  60.4  62.4 1012.3 -9.9 -9.999 -99.9 -99.99 -9.99
2019/10/13 11:30 PDT    5.86   6.13    4  297    6  60.1  62.4 1012.3 -9.9 -9.999 -99.9 -99.99 -9.99
2019/10/13 11:36 PDT    5.92   6.18    3  328    6  60.6  62.4 1012.4 -9.9 -9.999 -99.9 -99.99 -9.99
2019/10/13 11:42 PDT    5.98   6.25    3  309    5  60.6  62.4 1012.4 -9.9 -9.999 -99.9 -99.99 -9.99
2019/10/13 11:48 PDT    6.03   6.32    5  341    6  60.4  62.4 1012.4 -9.9 -9.999 -99.9 -99.99 -9.99
2019/10/13 11:54 PDT    6.07   6.37    4  300    6  60.4  62.4 1012.4 -9.9 -9.999 -99.9 -99.99 -9.99
2019/10/13 12:00 PDT    6.11   6.39    4  313    7  60.6  62.6 1012.4 -9.9 -9.999 -99.9 -99.99 -9.99
2019/10/13 12:06 PDT    6.14   6.41    4  303    7  61.0  62.6 1012.4 -9.9 -9.999 -99.9 -99.99 -9.99
2019/10/13 12:12 PDT    6.17   6.46    3  304    6  61.3  62.6 1012.3 -9.9 -9.999 -99.9 -99.99 -9.99
2019/10/13 12:18 PDT    6.19   6.50    4  278    5  61.0  62.6 1012.3 -9.9 -9.999 -99.9 -99.99 -9.99
2019/10/13 12:24 PDT    6.20   6.54    5  274    6  60.3  62.6 1012.2 -9.9 -9.999 -99.9 -99.99 -9.99
2019/10/13 12:30 PDT    6.20   6.57    4  273    5  60.8  62.6 1012.1 -9.9 -9.999 -99.9 -99.99 -9.99
2019/10/13 12:36 PDT    6.20   6.59    4  275    5  61.0  62.6 1012.0 -9.9 -9.999 -99.9 -99.99 -9.99
2019/10/13 12:42 PDT    6.19   6.58    5  278    6  60.8  62.6 1012.0 -9.9 -9.999 -99.9 -99.99 -9.99
2019/10/13 12:48 PDT    6.17   6.57    4  272    6  61.3  62.6 1011.9 -9.9 -9.999 -99.9 -99.99 -9.99
2019/10/13 12:54 PDT    6.15   6.54    4  264    5  61.2  62.6 1011.9 -9.9 -9.999 -99.9 -99.99 -9.99
2019/10/13 13:00 PDT    6.12   6.51    4  268    5  61.3  62.6 1011.9 -9.9 -9.999 -99.9 -99.99 -9.99
2019/10/13 13:06 PDT    6.08   6.46    4  261    5  61.3  62.6 1011.8 -9.9 -9.999 -99.9 -99.99 -9.99
2019/10/13 13:12 PDT    6.03   6.41    4  259    5  61.2  62.6 1011.7 -9.9 -9.999 -99.9 -99.99 -9.99
2019/10/13 13:18 PDT    5.98   6.37    4  277    5  62.4  62.8 1011.6 -9.9 -9.999 -99.9 -99.99 -9.99
2019/10/13 13:24 PDT    5.92   6.29    5  275    6  62.2  62.8 1011.5 -9.9 -9.999 -99.9 -99.99 -9.99
2019/10/13 13:30 PDT    5.85   6.17    4  270    5  62.8  62.8 1011.4 -9.9 -9.999 -99.9 -99.99 -9.99
2019/10/13 13:36 PDT    5.78   6.04    4  273    5  63.1  62.6 1011.3 -9.9 -9.999 -99.9 -99.99 -9.99
2019/10/13 13:42 PDT    5.70   5.95    4  268    5  63.9  62.6 1011.2 -9.9 -9.999 -99.9 -99.99 -9.99
2019/10/13 13:48 PDT    5.61   5.88    4  259    4  63.5  62.6 1011.2 -9.9 -9.999 -99.9 -99.99 -9.99
2019/10/13 13:54 PDT    5.52   5.77    4  265    5  64.0  62.6 1011.1 -9.9 -9.999 -99.9 -99.99 -9.99
2019/10/13 14:00 PDT    5.42   5.65    4  272    6  64.2  62.6 1011.1 -9.9 -9.999 -99.9 -99.99 -9.99
2019/10/13 14:06 PDT    5.32   5.52    4  272    6  64.8  62.6 1011.0 -9.9 -9.999 -99.9 -99.99 -9.99
2019/10/13 14:12 PDT    5.21   5.40    4  270    6  64.9  62.6 1010.9 -9.9 -9.999 -99.9 -99.99 -9.99
2019/10/13 14:18 PDT    5.09   5.27    4  271    5  65.3  62.6 1010.8 -9.9 -9.999 -99.9 -99.99 -9.99
2019/10/13 14:24 PDT    4.98   5.16    5  276    6  66.0  62.6 1010.8 -9.9 -9.999 -99.9 -99.99 -9.99
2019/10/13 14:30 PDT    4.85   5.07    7  280    8  65.1  62.6 1010.9 -9.9 -9.999 -99.9 -99.99 -9.99
2019/10/13 14:36 PDT    4.73   4.94    7  278    8  64.9  62.6 1010.9 -9.9 -9.999 -99.9 -99.99 -9.99
2019/10/13 14:42 PDT    4.60   4.80    7  279    8  64.6  62.6 1010.9 -9.9 -9.999 -99.9 -99.99 -9.99
2019/10/13 14:48 PDT    4.47   4.67    7  284    9  64.4  62.6 1010.9 -9.9 -9.999 -99.9 -99.99 -9.99
2019/10/13 14:54 PDT    4.33   4.51    9  279   11  63.7  62.8 1011.0 -9.9 -9.999 -99.9 -99.99 -9.99
2019/10/13 15:00 PDT    4.19   4.35    9  284   11  63.0  62.8 1011.0 -9.9 -9.999 -99.9 -99.99 -9.99
2019/10/13 15:06 PDT    4.06   4.20    8  284   12  62.8  62.8 1011.0 -9.9 -9.999 -99.9 -99.99 -9.99
2019/10/13 15:12 PDT    3.92   4.06    9  285   10  62.2  62.8 1011.0 -9.9 -9.999 -99.9 -99.99 -9.99
2019/10/13 15:18 PDT    3.78   3.92    9  284   11  62.1  62.8 1011.1 -9.9 -9.999 -99.9 -99.99 -9.99
2019/10/13 15:24 PDT    3.64   3.77    9  283   11  62.4  62.8 1011.0 -9.9 -9.999 -99.9 -99.99 -9.99
2019/10/13 15:30 PDT    3.50   3.59    9  282   12  61.5  62.8 1011.1 -9.9 -9.999 -99.9 -99.99 -9.99
2019/10/13 15:36 PDT    3.36   3.41   10  282   12  61.5  62.8 1011.2 -9.9 -9.999 -99.9 -99.99 -9.99
2019/10/13 15:42 PDT    3.23   3.25    9  282   12  61.5  62.8 1011.2 -9.9 -9.999 -99.9 -99.99 -9.99
2019/10/13 15:48 PDT    3.09   3.14    8  283   11  61.7  62.8 1011.2 -9.9 -9.999 -99.9 -99.99 -9.99
2019/10/13 15:54 PDT    2.95   3.04   10  281   12  61.3  62.8 1011.2 -9.9 -9.999 -99.9 -99.99 -9.99
2019/10/13 16:00 PDT    2.82   2.90   10  281   12  61.2  62.8 1011.2 -9.9 -9.999 -99.9 -99.99 -9.99
2019/10/13 16:06 PDT    2.69   2.76    8  287   11  61.7  63.0 1011.3 -9.9 -9.999 -99.9 -99.99 -9.99
2019/10/13 16:12 PDT    2.56   2.63    9  283   11  61.0  63.0 1011.2 -9.9 -9.999 -99.9 -99.99 -9.99
2019/10/13 16:18 PDT    2.44   2.51   11  283   13  61.0  63.0 1011.3 -9.9 -9.999 -99.9 -99.99 -9.99
2019/10/13 16:24 PDT    2.32   2.38    8  285   12  61.0  63.0 1011.2 -9.9 -9.999 -99.9 -99.99 -9.99
2019/10/13 16:30 PDT    2.20   2.28    9  284   11  61.2  63.1 1011.2 -9.9 -9.999 -99.9 -99.99 -9.99
2019/10/13 16:36 PDT    2.09   2.18    9  282   11  60.8  63.1 1011.2 -9.9 -9.999 -99.9 -99.99 -9.99
2019/10/13 16:42 PDT    1.98   2.09    8  282   11  60.6  63.3 1011.2 -9.9 -9.999 -99.9 -99.99 -9.99
2019/10/13 16:48 PDT    1.87   1.97    7  285   10  60.6  63.3 1011.1 -9.9 -9.999 -99.9 -99.99 -9.99
2019/10/13 16:54 PDT    1.77   1.86    5  284    8  61.0  63.3 1011.1 -9.9 -9.999 -99.9 -99.99 -9.99
2019/10/13 17:00 PDT    1.67   1.77    6  288    8  61.3  63.5 1011.1 -9.9 -9.999 -99.9 -99.99 -9.99
2019/10/13 17:06 PDT    1.57   1.68    7  282   10  61.5  63.5 1011.1 -9.9 -9.999 -99.9 -99.99 -9.99
2019/10/13 17:12 PDT    1.49   1.58    6  284    9  61.7  63.7 1011.0 -9.9 -9.999 -99.9 -99.99 -9.99
2019/10/13 17:18 PDT    1.40   1.49    7  279   10  61.7  63.7 1011.1 -9.9 -9.999 -99.9 -99.99 -9.99
2019/10/13 17:24 PDT    1.32   1.43    6  282    9  61.7  63.7 1011.1 -9.9 -9.999 -99.9 -99.99 -9.99
2019/10/13 17:30 PDT    1.25   1.35    7  283    9  61.5  63.9 1011.0 -9.9 -9.999 -99.9 -99.99 -9.99
2019/10/13 17:36 PDT    1.18   1.29    6  283    8  61.5  63.9 1011.0 -9.9 -9.999 -99.9 -99.99 -9.99
2019/10/13 17:42 PDT    1.11   1.26    5  282    7  61.7  63.9 1011.0 -9.9 -9.999 -99.9 -99.99 -9.99
2019/10/13 17:48 PDT    1.06   1.23    5  279    7  62.1  63.9 1011.0 -9.9 -9.999 -99.9 -99.99 -9.99
2019/10/13 17:54 PDT    1.00   1.17    6  283    8  61.5  64.0 1011.0 -9.9 -9.999 -99.9 -99.99 -9.99
2019/10/13 18:00 PDT    0.96   1.12    6  282    8  61.5  64.0 1011.1 -9.9 -9.999 -99.9 -99.99 -9.99
2019/10/13 18:06 PDT    0.92   1.09    7  282    9  61.0  64.0 1011.1 -9.9 -9.999 -99.9 -99.99 -9.99
2019/10/13 18:12 PDT    0.88   1.06    7  280    8  60.6  64.0 1011.2 -9.9 -9.999 -99.9 -99.99 -9.99
2019/10/13 18:18 PDT    0.85   1.04    7  282   10  60.6  64.0 1011.2 -9.9 -9.999 -99.9 -99.99 -9.99
2019/10/13 18:24 PDT    0.83   1.02    7  280   10  60.4  64.0 1011.2 -9.9 -9.999 -99.9 -99.99 -9.99
2019/10/13 18:30 PDT    0.81   1.00    6  286    9  60.3  64.0 1011.2 -9.9 -9.999 -99.9 -99.99 -9.99
2019/10/13 18:36 PDT    0.80   0.98    5  283    8  60.3  64.0 1011.3 -9.9 -9.999 -99.9 -99.99 -9.99
2019/10/13 18:42 PDT    0.80   0.97    4  280    7  60.4  64.0 1011.3 -9.9 -9.999 -99.9 -99.99 -9.99
2019/10/13 18:48 PDT    0.80   0.97    4  284    5  60.3  64.0 1011.3 -9.9 -9.999 -99.9 -99.99 -9.99
2019/10/13 18:54 PDT    0.81   0.98    3  281    5  60.3  64.0 1011.4 -9.9 -9.999 -99.9 -99.99 -9.99
2019/10/13 19:00 PDT    0.82   1.01    4  289    5  60.1  64.0 1011.4 -9.9 -9.999 -99.9 -99.99 -9.99
2019/10/13 19:06 PDT    0.84   1.05    3  283    5  59.7  64.0 1011.5 -9.9 -9.999 -99.9 -99.99 -9.99
2019/10/13 19:12 PDT    0.87   1.07    3  284    4  59.9  64.0 1011.5 -9.9 -9.999 -99.9 -99.99 -9.99
2019/10/13 19:18 PDT    0.90   1.11    4  283    5  59.7  64.2 1011.6 -9.9 -9.999 -99.9 -99.99 -9.99
2019/10/13 19:24 PDT    0.94   1.14    2  308    4  59.9  64.2 1011.6 -9.9 -9.999 -99.9 -99.99 -9.99
2019/10/13 19:30 PDT    0.99   1.19    2  299    4  59.9  64.2 1011.6 -9.9 -9.999 -99.9 -99.99 -9.99
2019/10/13 19:36 PDT    1.04   1.28    4  286    6  59.2  64.2 1011.6 -9.9 -9.999 -99.9 -99.99 -9.99
2019/10/13 19:42 PDT    1.09   1.39    3  291    5  59.2  64.2 1011.7 -9.9 -9.999 -99.9 -99.99 -9.99
2019/10/13 19:48 PDT    1.16   1.48    3  280    4  58.8  64.2 1011.7 -9.9 -9.999 -99.9 -99.99 -9.99
2019/10/13 19:54 PDT    1.23   1.54    4  271    6  59.4  64.2 1011.8 -9.9 -9.999 -99.9 -99.99 -9.99
2019/10/13 20:00 PDT    1.30   1.61    5  278    7  58.6  64.2 1011.8 -9.9 -9.999 -99.9 -99.99 -9.99
2019/10/13 20:06 PDT    1.38   1.66    5  287    7  58.3  64.2 1011.8 -9.9 -9.999 -99.9 -99.99 -9.99
2019/10/13 20:12 PDT    1.46   1.74    8  284   11  58.1  64.0 1011.9 -9.9 -9.999 -99.9 -99.99 -9.99
2019/10/13 20:18 PDT    1.55   1.83    9  283   11  57.6  64.0 1011.9 -9.9 -9.999 -99.9 -99.99 -9.99
2019/10/13 20:24 PDT    1.64   1.91    8  283   11  57.2  64.0 1011.9 -9.9 -9.999 -99.9 -99.99 -9.99
2019/10/13 20:30 PDT    1.74   2.01    7  285    8  57.2  64.0 1012.0 -9.9 -9.999 -99.9 -99.99 -9.99
2019/10/13 20:36 PDT    1.84   2.12    6  288    9  56.8  64.0 1012.0 -9.9 -9.999 -99.9 -99.99 -9.99
2019/10/13 20:42 PDT    1.94   2.22    5  283    7  56.8  64.0 1012.0 -9.9 -9.999 -99.9 -99.99 -9.99
2019/10/13 20:48 PDT    2.05   2.32    6  286    7  56.8  64.0 1012.1 -9.9 -9.999 -99.9 -99.99 -9.99
2019/10/13 20:54 PDT    2.16   2.43    5  285    7  56.7  64.0 1012.1 -9.9 -9.999 -99.9 -99.99 -9.99
2019/10/13 21:00 PDT    2.27   2.56    5  287    6  56.5  64.0 1012.1 -9.9 -9.999 -99.9 -99.99 -9.99
2019/10/13 21:06 PDT    2.39   2.70    5  288    7  56.7  64.0 1012.2 -9.9 -9.999 -99.9 -99.99 -9.99
2019/10/13 21:12 PDT    2.50   2.80    5  283    7  56.5  63.9 1012.2 -9.9 -9.999 -99.9 -99.99 -9.99
2019/10/13 21:18 PDT    2.62   2.90    4  285    5  56.5  63.9 1012.2 -9.9 -9.999 -99.9 -99.99 -9.99
2019/10/13 21:24 PDT    2.74   3.00    3  284    5  56.5  63.9 1012.2 -9.9 -9.999 -99.9 -99.99 -9.99
2019/10/13 21:30 PDT    2.86   3.12    3  278    4  56.3  63.9 1012.1 -9.9 -9.999 -99.9 -99.99 -9.99
2019/10/13 21:36 PDT    2.98   3.26    3  283    3  56.3  63.9 1012.2 -9.9 -9.999 -99.9 -99.99 -9.99
2019/10/13 21:42 PDT    3.10   3.39    1  288    3  56.5  63.7 1012.3 -9.9 -9.999 -99.9 -99.99 -9.99
2019/10/13 21:48 PDT    3.22   3.53    2  280    3  56.3  63.7 1012.2 -9.9 -9.999 -99.9 -99.99 -9.99
2019/10/13 21:54 PDT    3.34   3.65    3  281    3  56.3  63.7 1012.2 -9.9 -9.999 -99.9 -99.99 -9.99
2019/10/13 22:00 PDT    3.46   3.75    1  338    3  56.1  63.7 1012.3 -9.9 -9.999 -99.9 -99.99 -9.99
2019/10/13 22:06 PDT    3.58   3.85    2  244    3  56.5  63.5 1012.3 -9.9 -9.999 -99.9 -99.99 -9.99
2019/10/13 22:12 PDT    3.69   3.96    2  231    3  56.3  63.5 1012.4 -9.9 -9.999 -99.9 -99.99 -9.99
2019/10/13 22:18 PDT    3.81   4.08    1  245    3  56.3  63.5 1012.5 -9.9 -9.999 -99.9 -99.99 -9.99
2019/10/13 22:24 PDT    3.92   4.20    4  249    4  56.7  63.5 1012.5 -9.9 -9.999 -99.9 -99.99 -9.99
2019/10/13 22:30 PDT    4.04   4.31    4  253    6  56.7  63.3 1012.6 -9.9 -9.999 -99.9 -99.99 -9.99
2019/10/13 22:36 PDT    4.15   4.40    5  263    6  56.5  63.3 1012.7 -9.9 -9.999 -99.9 -99.99 -9.99
2019/10/13 22:42 PDT    4.26   4.52    5  265    7  56.5  63.3 1012.8 -9.9 -9.999 -99.9 -99.99 -9.99
2019/10/13 22:48 PDT    4.36   4.64    6  268    9  56.3  63.1 1012.9 -9.9 -9.999 -99.9 -99.99 -9.99
2019/10/13 22:54 PDT    4.47   4.73    7  268    9  56.1  63.1 1013.0 -9.9 -9.999 -99.9 -99.99 -9.99
2019/10/13 23:00 PDT    4.57   4.81    8  262   11  56.1  63.1 1013.0 -9.9 -9.999 -99.9 -99.99 -9.99
2019/10/13 23:06 PDT    4.67   4.92    7  264   10  55.9  63.1 1013.1 -9.9 -9.999 -99.9 -99.99 -9.99
2019/10/13 23:12 PDT    4.76   5.02    7  269   11  55.9  63.1 1013.2 -9.9 -9.999 -99.9 -99.99 -9.99
2019/10/13 23:18 PDT    4.85   5.10    7  264   10  56.1  63.0 1013.2 -9.9 -9.999 -99.9 -99.99 -9.99
2019/10/13 23:24 PDT    4.94   5.20    6  277    9  55.9  63.0 1013.2 -9.9 -9.999 -99.9 -99.99 -9.99
2019/10/13 23:30 PDT    5.02   5.29    7  269   11  55.9  62.8 1013.2 -9.9 -9.999 -99.9 -99.99 -9.99
2019/10/13 23:36 PDT    5.10   5.36    6  284    8  55.6  62.8 1013.2 -9.9 -9.999 -99.9 -99.99 -9.99
2019/10/13 23:42 PDT    5.18   5.40    6  270    8  55.9  62.8 1013.2 -9.9 -9.999 -99.9 -99.99 -9.99
2019/10/13 23:48 PDT    5.25   5.49    4  282    6  55.9  62.8 1013.2 -9.9 -9.999 -99.9 -99.99 -9.99
2019/10/13 23:54 PDT    5.32   5.60    4  276    6  55.9  62.8 1013.1 -9.9 -9.999 -99.9 -99.99 -9.99
2019/10/14 00:00 PDT    5.38   5.66    4  271    5  55.8  62.8 1013.1 -9.9 -9.999 -99.9 -99.99 -9.99
2019/10/14 00:06 PDT    5.44   5.68    4  284    6  55.8  62.8 1013.1 -9.9 -9.999 -99.9 -99.99 -9.99
2019/10/14 00:12 PDT    5.49   5.73    3  294    6  55.6  62.8 1013.1 -9.9 -9.999 -99.9 -99.99 -9.99
2019/10/14 00:18 PDT    5.53   5.79    2  293    3  55.8  62.8 1013.1 -9.9 -9.999 -99.9 -99.99 -9.99
2019/10/14 00:24 PDT    5.57   5.83    2  279    3  55.6  62.8 1013.0 -9.9 -9.999 -99.9 -99.99 -9.99
2019/10/14 00:30 PDT    5.61   5.88    2  272    3  55.8  62.8 1013.0 -9.9 -9.999 -99.9 -99.99 -9.99
2019/10/14 00:36 PDT    5.64   5.92    3  258    4  55.8  62.8 1013.0 -9.9 -9.999 -99.9 -99.99 -9.99
2019/10/14 00:42 PDT    5.66   5.94    3  245    4  55.9  62.8 1013.0 -9.9 -9.999 -99.9 -99.99 -9.99
2019/10/14 00:48 PDT    5.68   5.94    2  237    4  55.8  62.8 1012.9 -9.9 -9.999 -99.9 -99.99 -9.99
2019/10/14 00:54 PDT    5.69   5.99    1  296    3  55.8  62.8 1012.9 -9.9 -9.999 -99.9 -99.99 -9.99
2019/10/14 01:00 PDT    5.69   6.05    1  309    3  55.6  62.8 1013.0 -9.9 -9.999 -99.9 -99.99 -9.99
2019/10/14 01:06 PDT    5.69   6.05    2  253    3  55.8  62.8 1013.0 -9.9 -9.999 -99.9 -99.99 -9.99
2019/10/14 01:12 PDT    5.68   6.00    4  266    6  55.8  62.8 1013.1 -9.9 -9.999 -99.9 -99.99 -9.99
2019/10/14 01:18 PDT    5.66   5.97    4  268    6  55.6  63.0 1013.1 -9.9 -9.999 -99.9 -99.99 -9.99
2019/10/14 01:24 PDT    5.64   5.96    4  260    5  55.4  63.0 1013.2 -9.9 -9.999 -99.9 -99.99 -9.99
2019/10/14 01:30 PDT    5.61   5.95    4  271    5  55.4  63.0 1013.3 -9.9 -9.999 -99.9 -99.99 -9.99
2019/10/14 01:36 PDT    5.57   5.93    4  283    5  55.2  63.0 1013.3 -9.9 -9.999 -99.9 -99.99 -9.99
2019/10/14 01:42 PDT    5.53   5.88    4  258    5  55.0  63.0 1013.2 -9.9 -9.999 -99.9 -99.99 -9.99
2019/10/14 01:48 PDT    5.48   5.82    4  251    6  55.4  63.0 1013.3 -9.9 -9.999 -99.9 -99.99 -9.99
2019/10/14 01:54 PDT    5.42   5.75    4  263    6  55.2  63.0 1013.2 -9.9 -9.999 -99.9 -99.99 -9.99
2019/10/14 02:00 PDT    5.36   5.67    5  254    6  55.2  63.0 1013.3 -9.9 -9.999 -99.9 -99.99 -9.99
2019/10/14 02:06 PDT    5.29   5.58    5  257    7  55.2  63.0 1013.2 -9.9 -9.999 -99.9 -99.99 -9.99
2019/10/14 02:12 PDT    5.22   5.48    3  271    5  55.0  63.0 1013.2 -9.9 -9.999 -99.9 -99.99 -9.99
2019/10/14 02:18 PDT    5.14   5.39    2  290    4  54.9  63.0 1013.3 -9.9 -9.999 -99.9 -99.99 -9.99
2019/10/14 02:24 PDT    5.06   5.28    3  282    5  54.9  62.8 1013.3 -9.9 -9.999 -99.9 -99.99 -9.99
2019/10/14 02:30 PDT    4.97   5.21    3  274    4  55.0  62.8 1013.3 -9.9 -9.999 -99.9 -99.99 -9.99
2019/10/14 02:36 PDT    4.87   5.12    2  283    3  54.9  62.8 1013.3 -9.9 -9.999 -99.9 -99.99 -9.99
2019/10/14 02:42 PDT    4.77   4.99    3  287    4  54.9  62.8 1013.3 -9.9 -9.999 -99.9 -99.99 -9.99
2019/10/14 02:48 PDT    4.67   4.85    3  285    4  54.9  62.8 1013.3 -9.9 -9.999 -99.9 -99.99 -9.99
2019/10/14 02:54 PDT    4.56   4.74    3  288    4  54.7  62.8 1013.3 -9.9 -9.999 -99.9 -99.99 -9.99
2019/10/14 03:00 PDT    4.45   4.65    2  292    3  54.9  62.8 1013.3 -9.9 -9.999 -99.9 -99.99 -9.99
2019/10/14 03:06 PDT    4.34   4.55    0   33    3  54.5  62.8 1013.2 -9.9 -9.999 -99.9 -99.99 -9.99
2019/10/14 03:12 PDT    4.23   4.42    2   87    2  54.0  62.8 1013.2 -9.9 -9.999 -99.9 -99.99 -9.99
2019/10/14 03:18 PDT    4.11   4.29    2   92    3  54.0  62.8 1013.1 -9.9 -9.999 -99.9 -99.99 -9.99
2019/10/14 03:24 PDT    4.00   4.15    2   83    3  54.0  62.8 1013.1 -9.9 -9.999 -99.9 -99.99 -9.99
2019/10/14 03:30 PDT    3.88   4.02    2   87    3  54.0  62.8 1013.1 -9.9 -9.999 -99.9 -99.99 -9.99
2019/10/14 03:36 PDT    3.76   3.88    2   91    2  54.0  62.8 1013.1 -9.9 -9.999 -99.9 -99.99 -9.99
2019/10/14 03:42 PDT    3.64   3.76    1   85    2  54.0  62.8 1013.1 -9.9 -9.999 -99.9 -99.99 -9.99
2019/10/14 03:48 PDT    3.52   3.61    2   89    2  54.1  62.8 1013.1 -9.9 -9.999 -99.9 -99.99 -9.99
2019/10/14 03:54 PDT    3.40   3.46    2   89    3  54.0  62.8 1013.1 -9.9 -9.999 -99.9 -99.99 -9.99
2019/10/14 04:00 PDT    3.29 -99.99 -999 -999 -999 -99.9 -99.9 -999.9 -9.9 -9.999 -99.9 -99.99 -9.99
2019/10/14 04:06 PDT    3.17 -99.99 -999 -999 -999 -99.9 -99.9 -999.9 -9.9 -9.999 -99.9 -99.99 -9.99
2019/10/14 04:12 PDT    3.06 -99.99 -999 -999 -999 -99.9 -99.9 -999.9 -9.9 -9.999 -99.9 -99.99 -9.99